<?xml version="1.0" encoding="UTF-8"?>
<gpx version="1.1" creator="https://www.youtrack.es" xsi:schemaLocation="http://www.topografix.com/GPX/1/1 http://www.topografix.com/GPX/1/1/gpx.xsd http://www.garmin.com/xmlschemas/GpxExtensions/v3 http://www.garmin.com/xmlschemas/GpxExtensionsv3.xsd http://www.garmin.com/xmlschemas/TrackPointExtension/v1 http://www.garmin.com/xmlschemas/TrackPointExtensionv1.xsd" xmlns:gpxtpx="http://www.garmin.com/xmlschemas/TrackPointExtension/v1" xmlns:gpxx="http://www.garmin.com/xmlschemas/GpxExtensions/v3" xmlns:xsi="http://www.w3.org/2001/XMLSchema-instance">
  <metadata>
    <link href="https://www.youtrack.es">
      <text>YouTrack.es</text>
    </link>
    <time>2026-05-09T01:00:42Z</time>
  </metadata>
  <trk>
    <src>https://www.youtrack.es</src>
    <link href="https://www.youtrack.es/ruta/19153-les-lloses-la-fassina-circular">
      <text>YouTrack.es</text>
    </link>
    <trkseg>
      <trkpt lat="41.2693148" lon="1.7920322">
        <ele>38.47</ele>
        <time>2021-01-03T06:14:00Z</time>
      </trkpt>
      <trkpt lat="41.2691039" lon="1.7920369">
        <ele>45.81</ele>
        <time>2021-01-03T06:14:01Z</time>
      </trkpt>
      <trkpt lat="41.2694071" lon="1.7914063">
        <ele>-13.71</ele>
        <time>2021-01-03T06:14:03Z</time>
      </trkpt>
      <trkpt lat="41.2692115" lon="1.7920139">
        <ele>11.12</ele>
        <time>2021-01-03T06:14:04Z</time>
      </trkpt>
      <trkpt lat="41.2690340" lon="1.7919499">
        <ele>38.40</ele>
        <time>2021-01-03T06:14:55Z</time>
      </trkpt>
      <trkpt lat="41.2690000" lon="1.7921878">
        <ele>73.99</ele>
        <time>2021-01-03T06:21:48Z</time>
      </trkpt>
      <trkpt lat="41.2689851" lon="1.7924309">
        <ele>71.74</ele>
        <time>2021-01-03T06:22:04Z</time>
      </trkpt>
      <trkpt lat="41.2689365" lon="1.7926654">
        <ele>74.17</ele>
        <time>2021-01-03T06:22:21Z</time>
      </trkpt>
      <trkpt lat="41.2689540" lon="1.7929139">
        <ele>70.84</ele>
        <time>2021-01-03T06:22:38Z</time>
      </trkpt>
      <trkpt lat="41.2689703" lon="1.7931622">
        <ele>70.11</ele>
        <time>2021-01-03T06:22:53Z</time>
      </trkpt>
      <trkpt lat="41.2690132" lon="1.7934014">
        <ele>71.83</ele>
        <time>2021-01-03T06:23:09Z</time>
      </trkpt>
      <trkpt lat="41.2690758" lon="1.7936411">
        <ele>71.39</ele>
        <time>2021-01-03T06:23:25Z</time>
      </trkpt>
      <trkpt lat="41.2691229" lon="1.7938856">
        <ele>71.74</ele>
        <time>2021-01-03T06:23:44Z</time>
      </trkpt>
      <trkpt lat="41.2691577" lon="1.7941313">
        <ele>73.66</ele>
        <time>2021-01-03T06:23:57Z</time>
      </trkpt>
      <trkpt lat="41.2692194" lon="1.7943587">
        <ele>75.17</ele>
        <time>2021-01-03T06:24:11Z</time>
      </trkpt>
      <trkpt lat="41.2692760" lon="1.7945992">
        <ele>75.32</ele>
        <time>2021-01-03T06:24:27Z</time>
      </trkpt>
      <trkpt lat="41.2693240" lon="1.7948419">
        <ele>75.20</ele>
        <time>2021-01-03T06:24:43Z</time>
      </trkpt>
      <trkpt lat="41.2693825" lon="1.7950801">
        <ele>74.06</ele>
        <time>2021-01-03T06:24:58Z</time>
      </trkpt>
      <trkpt lat="41.2692909" lon="1.7952964">
        <ele>66.78</ele>
        <time>2021-01-03T06:25:16Z</time>
      </trkpt>
      <trkpt lat="41.2694271" lon="1.7954748">
        <ele>67.78</ele>
        <time>2021-01-03T06:26:03Z</time>
      </trkpt>
      <trkpt lat="41.2695007" lon="1.7956971">
        <ele>67.89</ele>
        <time>2021-01-03T06:26:16Z</time>
      </trkpt>
      <trkpt lat="41.2695731" lon="1.7959220">
        <ele>69.52</ele>
        <time>2021-01-03T06:26:29Z</time>
      </trkpt>
      <trkpt lat="41.2696558" lon="1.7961538">
        <ele>73.59</ele>
        <time>2021-01-03T06:26:45Z</time>
      </trkpt>
      <trkpt lat="41.2697162" lon="1.7963807">
        <ele>73.32</ele>
        <time>2021-01-03T06:27:00Z</time>
      </trkpt>
      <trkpt lat="41.2697894" lon="1.7966098">
        <ele>72.94</ele>
        <time>2021-01-03T06:27:16Z</time>
      </trkpt>
      <trkpt lat="41.2698783" lon="1.7968364">
        <ele>73.67</ele>
        <time>2021-01-03T06:27:31Z</time>
      </trkpt>
      <trkpt lat="41.2699636" lon="1.7970582">
        <ele>71.85</ele>
        <time>2021-01-03T06:27:46Z</time>
      </trkpt>
      <trkpt lat="41.2700495" lon="1.7972705">
        <ele>71.88</ele>
        <time>2021-01-03T06:28:01Z</time>
      </trkpt>
      <trkpt lat="41.2701202" lon="1.7974933">
        <ele>72.56</ele>
        <time>2021-01-03T06:28:16Z</time>
      </trkpt>
      <trkpt lat="41.2701857" lon="1.7977336">
        <ele>72.34</ele>
        <time>2021-01-03T06:28:31Z</time>
      </trkpt>
      <trkpt lat="41.2702877" lon="1.7979337">
        <ele>73.65</ele>
        <time>2021-01-03T06:28:45Z</time>
      </trkpt>
      <trkpt lat="41.2703413" lon="1.7981764">
        <ele>69.01</ele>
        <time>2021-01-03T06:29:06Z</time>
      </trkpt>
      <trkpt lat="41.2704350" lon="1.7983968">
        <ele>70.73</ele>
        <time>2021-01-03T06:29:21Z</time>
      </trkpt>
      <trkpt lat="41.2705153" lon="1.7986271">
        <ele>72.70</ele>
        <time>2021-01-03T06:29:32Z</time>
      </trkpt>
      <trkpt lat="41.2706075" lon="1.7988444">
        <ele>72.62</ele>
        <time>2021-01-03T06:29:47Z</time>
      </trkpt>
      <trkpt lat="41.2707329" lon="1.7990250">
        <ele>72.97</ele>
        <time>2021-01-03T06:30:01Z</time>
      </trkpt>
      <trkpt lat="41.2708831" lon="1.7991750">
        <ele>75.45</ele>
        <time>2021-01-03T06:30:17Z</time>
      </trkpt>
      <trkpt lat="41.2710381" lon="1.7993110">
        <ele>75.36</ele>
        <time>2021-01-03T06:30:32Z</time>
      </trkpt>
      <trkpt lat="41.2711974" lon="1.7994328">
        <ele>77.18</ele>
        <time>2021-01-03T06:30:47Z</time>
      </trkpt>
      <trkpt lat="41.2713742" lon="1.7994904">
        <ele>79.45</ele>
        <time>2021-01-03T06:31:03Z</time>
      </trkpt>
      <trkpt lat="41.2715560" lon="1.7995628">
        <ele>79.65</ele>
        <time>2021-01-03T06:31:19Z</time>
      </trkpt>
      <trkpt lat="41.2717264" lon="1.7996455">
        <ele>78.38</ele>
        <time>2021-01-03T06:31:30Z</time>
      </trkpt>
      <trkpt lat="41.2719038" lon="1.7997068">
        <ele>75.94</ele>
        <time>2021-01-03T06:31:43Z</time>
      </trkpt>
      <trkpt lat="41.2720788" lon="1.7996415">
        <ele>75.69</ele>
        <time>2021-01-03T06:31:59Z</time>
      </trkpt>
      <trkpt lat="41.2722579" lon="1.7995506">
        <ele>72.62</ele>
        <time>2021-01-03T06:32:15Z</time>
      </trkpt>
      <trkpt lat="41.2724392" lon="1.7994565">
        <ele>73.62</ele>
        <time>2021-01-03T06:32:30Z</time>
      </trkpt>
      <trkpt lat="41.2726276" lon="1.7994321">
        <ele>73.32</ele>
        <time>2021-01-03T06:32:44Z</time>
      </trkpt>
      <trkpt lat="41.2728077" lon="1.7994353">
        <ele>75.54</ele>
        <time>2021-01-03T06:33:01Z</time>
      </trkpt>
      <trkpt lat="41.2729133" lon="1.7996318">
        <ele>74.56</ele>
        <time>2021-01-03T06:33:23Z</time>
      </trkpt>
      <trkpt lat="41.2730246" lon="1.7994293">
        <ele>75.36</ele>
        <time>2021-01-03T06:33:56Z</time>
      </trkpt>
      <trkpt lat="41.2732098" lon="1.7993683">
        <ele>77.75</ele>
        <time>2021-01-03T06:34:09Z</time>
      </trkpt>
      <trkpt lat="41.2733947" lon="1.7994004">
        <ele>82.82</ele>
        <time>2021-01-03T06:34:33Z</time>
      </trkpt>
      <trkpt lat="41.2735665" lon="1.7993232">
        <ele>82.29</ele>
        <time>2021-01-03T06:34:49Z</time>
      </trkpt>
      <trkpt lat="41.2737307" lon="1.7992166">
        <ele>83.43</ele>
        <time>2021-01-03T06:35:01Z</time>
      </trkpt>
      <trkpt lat="41.2739125" lon="1.7991416">
        <ele>85.12</ele>
        <time>2021-01-03T06:35:19Z</time>
      </trkpt>
      <trkpt lat="41.2740983" lon="1.7991025">
        <ele>88.50</ele>
        <time>2021-01-03T06:35:36Z</time>
      </trkpt>
      <trkpt lat="41.2742723" lon="1.7991699">
        <ele>88.28</ele>
        <time>2021-01-03T06:35:51Z</time>
      </trkpt>
      <trkpt lat="41.2740865" lon="1.7991708">
        <ele>85.56</ele>
        <time>2021-01-03T06:36:34Z</time>
      </trkpt>
      <trkpt lat="41.2739010" lon="1.7991749">
        <ele>86.29</ele>
        <time>2021-01-03T06:36:50Z</time>
      </trkpt>
      <trkpt lat="41.2737212" lon="1.7992340">
        <ele>87.16</ele>
        <time>2021-01-03T06:37:06Z</time>
      </trkpt>
      <trkpt lat="41.2735561" lon="1.7993619">
        <ele>85.92</ele>
        <time>2021-01-03T06:37:22Z</time>
      </trkpt>
      <trkpt lat="41.2736186" lon="1.7995885">
        <ele>82.54</ele>
        <time>2021-01-03T06:37:43Z</time>
      </trkpt>
      <trkpt lat="41.2734698" lon="1.7994254">
        <ele>83.88</ele>
        <time>2021-01-03T06:38:34Z</time>
      </trkpt>
      <trkpt lat="41.2732792" lon="1.7994035">
        <ele>79.61</ele>
        <time>2021-01-03T06:38:52Z</time>
      </trkpt>
      <trkpt lat="41.2730961" lon="1.7993954">
        <ele>79.24</ele>
        <time>2021-01-03T06:39:06Z</time>
      </trkpt>
      <trkpt lat="41.2729139" lon="1.7994297">
        <ele>76.70</ele>
        <time>2021-01-03T06:39:19Z</time>
      </trkpt>
      <trkpt lat="41.2727347" lon="1.7994586">
        <ele>75.21</ele>
        <time>2021-01-03T06:39:39Z</time>
      </trkpt>
      <trkpt lat="41.2725404" lon="1.7994680">
        <ele>75.10</ele>
        <time>2021-01-03T06:39:54Z</time>
      </trkpt>
      <trkpt lat="41.2723581" lon="1.7995184">
        <ele>73.40</ele>
        <time>2021-01-03T06:40:08Z</time>
      </trkpt>
      <trkpt lat="41.2721893" lon="1.7996052">
        <ele>72.20</ele>
        <time>2021-01-03T06:40:22Z</time>
      </trkpt>
      <trkpt lat="41.2720133" lon="1.7996850">
        <ele>69.17</ele>
        <time>2021-01-03T06:40:36Z</time>
      </trkpt>
      <trkpt lat="41.2718316" lon="1.7997207">
        <ele>69.99</ele>
        <time>2021-01-03T06:40:51Z</time>
      </trkpt>
      <trkpt lat="41.2716547" lon="1.7996487">
        <ele>70.47</ele>
        <time>2021-01-03T06:41:06Z</time>
      </trkpt>
      <trkpt lat="41.2714963" lon="1.7995264">
        <ele>73.42</ele>
        <time>2021-01-03T06:41:23Z</time>
      </trkpt>
      <trkpt lat="41.2713252" lon="1.7994386">
        <ele>76.87</ele>
        <time>2021-01-03T06:41:38Z</time>
      </trkpt>
      <trkpt lat="41.2711328" lon="1.7994171">
        <ele>75.39</ele>
        <time>2021-01-03T06:41:51Z</time>
      </trkpt>
      <trkpt lat="41.2709604" lon="1.7993285">
        <ele>74.21</ele>
        <time>2021-01-03T06:42:06Z</time>
      </trkpt>
      <trkpt lat="41.2708228" lon="1.7991719">
        <ele>69.64</ele>
        <time>2021-01-03T06:42:30Z</time>
      </trkpt>
      <trkpt lat="41.2706966" lon="1.7990013">
        <ele>68.31</ele>
        <time>2021-01-03T06:42:43Z</time>
      </trkpt>
      <trkpt lat="41.2705835" lon="1.7987987">
        <ele>69.28</ele>
        <time>2021-01-03T06:43:00Z</time>
      </trkpt>
      <trkpt lat="41.2704851" lon="1.7985892">
        <ele>70.32</ele>
        <time>2021-01-03T06:43:19Z</time>
      </trkpt>
      <trkpt lat="41.2704025" lon="1.7983674">
        <ele>68.95</ele>
        <time>2021-01-03T06:43:31Z</time>
      </trkpt>
      <trkpt lat="41.2703456" lon="1.7981275">
        <ele>69.76</ele>
        <time>2021-01-03T06:43:45Z</time>
      </trkpt>
      <trkpt lat="41.2702519" lon="1.7979091">
        <ele>71.53</ele>
        <time>2021-01-03T06:44:00Z</time>
      </trkpt>
      <trkpt lat="41.2701716" lon="1.7976826">
        <ele>71.34</ele>
        <time>2021-01-03T06:44:16Z</time>
      </trkpt>
      <trkpt lat="41.2700879" lon="1.7974629">
        <ele>71.79</ele>
        <time>2021-01-03T06:44:30Z</time>
      </trkpt>
      <trkpt lat="41.2699143" lon="1.7973988">
        <ele>72.25</ele>
        <time>2021-01-03T06:44:47Z</time>
      </trkpt>
      <trkpt lat="41.2697296" lon="1.7974650">
        <ele>71.71</ele>
        <time>2021-01-03T06:45:01Z</time>
      </trkpt>
      <trkpt lat="41.2695442" lon="1.7975086">
        <ele>71.46</ele>
        <time>2021-01-03T06:45:16Z</time>
      </trkpt>
      <trkpt lat="41.2693678" lon="1.7974566">
        <ele>69.23</ele>
        <time>2021-01-03T06:45:34Z</time>
      </trkpt>
      <trkpt lat="41.2693240" lon="1.7977004">
        <ele>65.36</ele>
        <time>2021-01-03T06:46:03Z</time>
      </trkpt>
      <trkpt lat="41.2693591" lon="1.7979453">
        <ele>62.61</ele>
        <time>2021-01-03T06:46:20Z</time>
      </trkpt>
      <trkpt lat="41.2693613" lon="1.7981936">
        <ele>62.06</ele>
        <time>2021-01-03T06:46:37Z</time>
      </trkpt>
      <trkpt lat="41.2694159" lon="1.7984240">
        <ele>63.12</ele>
        <time>2021-01-03T06:46:50Z</time>
      </trkpt>
      <trkpt lat="41.2695317" lon="1.7986127">
        <ele>64.02</ele>
        <time>2021-01-03T06:47:02Z</time>
      </trkpt>
      <trkpt lat="41.2696747" lon="1.7987699">
        <ele>62.68</ele>
        <time>2021-01-03T06:47:16Z</time>
      </trkpt>
      <trkpt lat="41.2698454" lon="1.7988818">
        <ele>61.52</ele>
        <time>2021-01-03T06:47:32Z</time>
      </trkpt>
      <trkpt lat="41.2700183" lon="1.7989727">
        <ele>61.81</ele>
        <time>2021-01-03T06:47:46Z</time>
      </trkpt>
      <trkpt lat="41.2701120" lon="1.7991875">
        <ele>60.21</ele>
        <time>2021-01-03T06:48:54Z</time>
      </trkpt>
      <trkpt lat="41.2701511" lon="1.7994226">
        <ele>59.09</ele>
        <time>2021-01-03T06:49:10Z</time>
      </trkpt>
      <trkpt lat="41.2701083" lon="1.7996640">
        <ele>57.43</ele>
        <time>2021-01-03T06:49:28Z</time>
      </trkpt>
      <trkpt lat="41.2700774" lon="1.7999078">
        <ele>61.48</ele>
        <time>2021-01-03T06:49:52Z</time>
      </trkpt>
      <trkpt lat="41.2700995" lon="1.8001586">
        <ele>61.71</ele>
        <time>2021-01-03T06:50:05Z</time>
      </trkpt>
      <trkpt lat="41.2701120" lon="1.8004037">
        <ele>62.16</ele>
        <time>2021-01-03T06:50:19Z</time>
      </trkpt>
      <trkpt lat="41.2700677" lon="1.8006389">
        <ele>63.07</ele>
        <time>2021-01-03T06:50:35Z</time>
      </trkpt>
      <trkpt lat="41.2700447" lon="1.8008820">
        <ele>64.09</ele>
        <time>2021-01-03T06:50:48Z</time>
      </trkpt>
      <trkpt lat="41.2700079" lon="1.8011205">
        <ele>64.33</ele>
        <time>2021-01-03T06:51:03Z</time>
      </trkpt>
      <trkpt lat="41.2699833" lon="1.8013655">
        <ele>62.76</ele>
        <time>2021-01-03T06:51:18Z</time>
      </trkpt>
      <trkpt lat="41.2699625" lon="1.8016095">
        <ele>63.25</ele>
        <time>2021-01-03T06:51:33Z</time>
      </trkpt>
      <trkpt lat="41.2699286" lon="1.8018471">
        <ele>62.81</ele>
        <time>2021-01-03T06:51:49Z</time>
      </trkpt>
      <trkpt lat="41.2698401" lon="1.8020608">
        <ele>66.60</ele>
        <time>2021-01-03T06:52:05Z</time>
      </trkpt>
      <trkpt lat="41.2698354" lon="1.8023023">
        <ele>72.08</ele>
        <time>2021-01-03T06:52:18Z</time>
      </trkpt>
      <trkpt lat="41.2698626" lon="1.8025534">
        <ele>74.32</ele>
        <time>2021-01-03T06:52:34Z</time>
      </trkpt>
      <trkpt lat="41.2699067" lon="1.8027988">
        <ele>72.91</ele>
        <time>2021-01-03T06:52:51Z</time>
      </trkpt>
      <trkpt lat="41.2699269" lon="1.8030394">
        <ele>74.20</ele>
        <time>2021-01-03T06:53:08Z</time>
      </trkpt>
      <trkpt lat="41.2699518" lon="1.8032800">
        <ele>69.28</ele>
        <time>2021-01-03T06:53:27Z</time>
      </trkpt>
      <trkpt lat="41.2700333" lon="1.8035069">
        <ele>65.86</ele>
        <time>2021-01-03T06:53:44Z</time>
      </trkpt>
      <trkpt lat="41.2701248" lon="1.8037144">
        <ele>68.25</ele>
        <time>2021-01-03T06:53:55Z</time>
      </trkpt>
      <trkpt lat="41.2702204" lon="1.8039215">
        <ele>68.17</ele>
        <time>2021-01-03T06:54:10Z</time>
      </trkpt>
      <trkpt lat="41.2703157" lon="1.8041311">
        <ele>67.76</ele>
        <time>2021-01-03T06:54:26Z</time>
      </trkpt>
      <trkpt lat="41.2704085" lon="1.8043489">
        <ele>69.32</ele>
        <time>2021-01-03T06:54:41Z</time>
      </trkpt>
      <trkpt lat="41.2705244" lon="1.8045470">
        <ele>69.55</ele>
        <time>2021-01-03T06:54:56Z</time>
      </trkpt>
      <trkpt lat="41.2706126" lon="1.8047596">
        <ele>69.17</ele>
        <time>2021-01-03T06:55:12Z</time>
      </trkpt>
      <trkpt lat="41.2706496" lon="1.8050055">
        <ele>69.40</ele>
        <time>2021-01-03T06:55:27Z</time>
      </trkpt>
      <trkpt lat="41.2706701" lon="1.8052582">
        <ele>70.91</ele>
        <time>2021-01-03T06:55:41Z</time>
      </trkpt>
      <trkpt lat="41.2706670" lon="1.8055008">
        <ele>71.91</ele>
        <time>2021-01-03T06:55:55Z</time>
      </trkpt>
      <trkpt lat="41.2706512" lon="1.8057395">
        <ele>74.69</ele>
        <time>2021-01-03T06:56:10Z</time>
      </trkpt>
      <trkpt lat="41.2706001" lon="1.8059886">
        <ele>80.35</ele>
        <time>2021-01-03T06:57:18Z</time>
      </trkpt>
      <trkpt lat="41.2705105" lon="1.8061977">
        <ele>79.11</ele>
        <time>2021-01-03T06:57:38Z</time>
      </trkpt>
      <trkpt lat="41.2704186" lon="1.8064164">
        <ele>82.42</ele>
        <time>2021-01-03T06:57:49Z</time>
      </trkpt>
      <trkpt lat="41.2703153" lon="1.8066134">
        <ele>82.55</ele>
        <time>2021-01-03T06:58:03Z</time>
      </trkpt>
      <trkpt lat="41.2702770" lon="1.8068587">
        <ele>79.14</ele>
        <time>2021-01-03T06:58:26Z</time>
      </trkpt>
      <trkpt lat="41.2702278" lon="1.8070976">
        <ele>83.79</ele>
        <time>2021-01-03T06:58:47Z</time>
      </trkpt>
      <trkpt lat="41.2701780" lon="1.8073281">
        <ele>85.48</ele>
        <time>2021-01-03T06:59:03Z</time>
      </trkpt>
      <trkpt lat="41.2703588" lon="1.8073719">
        <ele>85.17</ele>
        <time>2021-01-03T06:59:43Z</time>
      </trkpt>
      <trkpt lat="41.2704736" lon="1.8071841">
        <ele>89.78</ele>
        <time>2021-01-03T07:00:02Z</time>
      </trkpt>
      <trkpt lat="41.2704314" lon="1.8074246">
        <ele>89.66</ele>
        <time>2021-01-03T07:00:32Z</time>
      </trkpt>
      <trkpt lat="41.2702626" lon="1.8075229">
        <ele>84.33</ele>
        <time>2021-01-03T07:00:59Z</time>
      </trkpt>
      <trkpt lat="41.2700681" lon="1.8074362">
        <ele>84.28</ele>
        <time>2021-01-03T07:01:07Z</time>
      </trkpt>
      <trkpt lat="41.2700167" lon="1.8071991">
        <ele>89.20</ele>
        <time>2021-01-03T07:01:25Z</time>
      </trkpt>
      <trkpt lat="41.2698349" lon="1.8072369">
        <ele>79.86</ele>
        <time>2021-01-03T07:02:12Z</time>
      </trkpt>
      <trkpt lat="41.2696701" lon="1.8073364">
        <ele>78.33</ele>
        <time>2021-01-03T07:02:26Z</time>
      </trkpt>
      <trkpt lat="41.2695554" lon="1.8075233">
        <ele>80.15</ele>
        <time>2021-01-03T07:02:41Z</time>
      </trkpt>
      <trkpt lat="41.2696010" lon="1.8077647">
        <ele>76.99</ele>
        <time>2021-01-03T07:03:00Z</time>
      </trkpt>
      <trkpt lat="41.2696966" lon="1.8079679">
        <ele>76.47</ele>
        <time>2021-01-03T07:03:12Z</time>
      </trkpt>
      <trkpt lat="41.2698216" lon="1.8081503">
        <ele>76.67</ele>
        <time>2021-01-03T07:03:29Z</time>
      </trkpt>
      <trkpt lat="41.2700023" lon="1.8081427">
        <ele>77.79</ele>
        <time>2021-01-03T07:03:46Z</time>
      </trkpt>
      <trkpt lat="41.2701855" lon="1.8080856">
        <ele>81.16</ele>
        <time>2021-01-03T07:04:02Z</time>
      </trkpt>
      <trkpt lat="41.2703686" lon="1.8080268">
        <ele>84.23</ele>
        <time>2021-01-03T07:04:19Z</time>
      </trkpt>
      <trkpt lat="41.2705225" lon="1.8078953">
        <ele>86.01</ele>
        <time>2021-01-03T07:04:35Z</time>
      </trkpt>
      <trkpt lat="41.2706762" lon="1.8077569">
        <ele>83.32</ele>
        <time>2021-01-03T07:04:51Z</time>
      </trkpt>
      <trkpt lat="41.2708207" lon="1.8076053">
        <ele>83.55</ele>
        <time>2021-01-03T07:05:07Z</time>
      </trkpt>
      <trkpt lat="41.2709681" lon="1.8074443">
        <ele>85.09</ele>
        <time>2021-01-03T07:05:19Z</time>
      </trkpt>
      <trkpt lat="41.2711286" lon="1.8073144">
        <ele>87.84</ele>
        <time>2021-01-03T07:05:36Z</time>
      </trkpt>
      <trkpt lat="41.2713149" lon="1.8073173">
        <ele>87.68</ele>
        <time>2021-01-03T07:05:55Z</time>
      </trkpt>
      <trkpt lat="41.2714858" lon="1.8074399">
        <ele>86.58</ele>
        <time>2021-01-03T07:06:06Z</time>
      </trkpt>
      <trkpt lat="41.2716401" lon="1.8075731">
        <ele>87.19</ele>
        <time>2021-01-03T07:06:13Z</time>
      </trkpt>
      <trkpt lat="41.2717685" lon="1.8077471">
        <ele>87.80</ele>
        <time>2021-01-03T07:06:25Z</time>
      </trkpt>
      <trkpt lat="41.2718317" lon="1.8079833">
        <ele>86.11</ele>
        <time>2021-01-03T07:06:42Z</time>
      </trkpt>
      <trkpt lat="41.2718655" lon="1.8082301">
        <ele>86.50</ele>
        <time>2021-01-03T07:06:56Z</time>
      </trkpt>
      <trkpt lat="41.2719117" lon="1.8084742">
        <ele>91.08</ele>
        <time>2021-01-03T07:07:10Z</time>
      </trkpt>
      <trkpt lat="41.2719769" lon="1.8087042">
        <ele>91.88</ele>
        <time>2021-01-03T07:07:24Z</time>
      </trkpt>
      <trkpt lat="41.2721274" lon="1.8088457">
        <ele>97.95</ele>
        <time>2021-01-03T07:07:38Z</time>
      </trkpt>
      <trkpt lat="41.2722514" lon="1.8090380">
        <ele>95.40</ele>
        <time>2021-01-03T07:08:03Z</time>
      </trkpt>
      <trkpt lat="41.2723067" lon="1.8092770">
        <ele>96.31</ele>
        <time>2021-01-03T07:08:18Z</time>
      </trkpt>
      <trkpt lat="41.2723208" lon="1.8095222">
        <ele>99.26</ele>
        <time>2021-01-03T07:08:30Z</time>
      </trkpt>
      <trkpt lat="41.2723585" lon="1.8097600">
        <ele>99.52</ele>
        <time>2021-01-03T07:08:45Z</time>
      </trkpt>
      <trkpt lat="41.2724089" lon="1.8099927">
        <ele>95.23</ele>
        <time>2021-01-03T07:09:00Z</time>
      </trkpt>
      <trkpt lat="41.2724869" lon="1.8102224">
        <ele>93.06</ele>
        <time>2021-01-03T07:09:13Z</time>
      </trkpt>
      <trkpt lat="41.2726052" lon="1.8104207">
        <ele>90.39</ele>
        <time>2021-01-03T07:09:27Z</time>
      </trkpt>
      <trkpt lat="41.2727641" lon="1.8105471">
        <ele>90.37</ele>
        <time>2021-01-03T07:09:44Z</time>
      </trkpt>
      <trkpt lat="41.2729534" lon="1.8105740">
        <ele>92.36</ele>
        <time>2021-01-03T07:10:05Z</time>
      </trkpt>
      <trkpt lat="41.2731409" lon="1.8105631">
        <ele>93.22</ele>
        <time>2021-01-03T07:10:20Z</time>
      </trkpt>
      <trkpt lat="41.2733309" lon="1.8105815">
        <ele>93.16</ele>
        <time>2021-01-03T07:10:34Z</time>
      </trkpt>
      <trkpt lat="41.2734892" lon="1.8107061">
        <ele>94.69</ele>
        <time>2021-01-03T07:10:49Z</time>
      </trkpt>
      <trkpt lat="41.2736429" lon="1.8108478">
        <ele>97.95</ele>
        <time>2021-01-03T07:11:03Z</time>
      </trkpt>
      <trkpt lat="41.2738088" lon="1.8109839">
        <ele>100.33</ele>
        <time>2021-01-03T07:11:12Z</time>
      </trkpt>
      <trkpt lat="41.2739535" lon="1.8111380">
        <ele>101.28</ele>
        <time>2021-01-03T07:11:25Z</time>
      </trkpt>
      <trkpt lat="41.2740832" lon="1.8113084">
        <ele>101.92</ele>
        <time>2021-01-03T07:11:42Z</time>
      </trkpt>
      <trkpt lat="41.2742477" lon="1.8114052">
        <ele>102.20</ele>
        <time>2021-01-03T07:11:58Z</time>
      </trkpt>
      <trkpt lat="41.2744313" lon="1.8114773">
        <ele>101.08</ele>
        <time>2021-01-03T07:12:14Z</time>
      </trkpt>
      <trkpt lat="41.2746052" lon="1.8115899">
        <ele>103.05</ele>
        <time>2021-01-03T07:12:30Z</time>
      </trkpt>
      <trkpt lat="41.2747699" lon="1.8117047">
        <ele>103.83</ele>
        <time>2021-01-03T07:12:42Z</time>
      </trkpt>
      <trkpt lat="41.2749276" lon="1.8118328">
        <ele>103.79</ele>
        <time>2021-01-03T07:12:55Z</time>
      </trkpt>
      <trkpt lat="41.2750862" lon="1.8119470">
        <ele>105.90</ele>
        <time>2021-01-03T07:13:06Z</time>
      </trkpt>
      <trkpt lat="41.2752505" lon="1.8120561">
        <ele>108.63</ele>
        <time>2021-01-03T07:13:20Z</time>
      </trkpt>
      <trkpt lat="41.2754225" lon="1.8121508">
        <ele>108.89</ele>
        <time>2021-01-03T07:13:36Z</time>
      </trkpt>
      <trkpt lat="41.2755879" lon="1.8122857">
        <ele>109.90</ele>
        <time>2021-01-03T07:13:49Z</time>
      </trkpt>
      <trkpt lat="41.2757632" lon="1.8123608">
        <ele>110.09</ele>
        <time>2021-01-03T07:14:03Z</time>
      </trkpt>
      <trkpt lat="41.2759298" lon="1.8124606">
        <ele>105.60</ele>
        <time>2021-01-03T07:14:20Z</time>
      </trkpt>
      <trkpt lat="41.2760829" lon="1.8126039">
        <ele>104.54</ele>
        <time>2021-01-03T07:14:33Z</time>
      </trkpt>
      <trkpt lat="41.2762671" lon="1.8126356">
        <ele>102.89</ele>
        <time>2021-01-03T07:14:47Z</time>
      </trkpt>
      <trkpt lat="41.2764505" lon="1.8126100">
        <ele>103.50</ele>
        <time>2021-01-03T07:15:00Z</time>
      </trkpt>
      <trkpt lat="41.2766125" lon="1.8127189">
        <ele>99.20</ele>
        <time>2021-01-03T07:15:14Z</time>
      </trkpt>
      <trkpt lat="41.2767745" lon="1.8128385">
        <ele>93.93</ele>
        <time>2021-01-03T07:15:26Z</time>
      </trkpt>
      <trkpt lat="41.2769273" lon="1.8129661">
        <ele>85.02</ele>
        <time>2021-01-03T07:15:35Z</time>
      </trkpt>
      <trkpt lat="41.2770979" lon="1.8130735">
        <ele>80.98</ele>
        <time>2021-01-03T07:15:45Z</time>
      </trkpt>
      <trkpt lat="41.2772448" lon="1.8132153">
        <ele>82.75</ele>
        <time>2021-01-03T07:15:57Z</time>
      </trkpt>
      <trkpt lat="41.2773804" lon="1.8133874">
        <ele>83.36</ele>
        <time>2021-01-03T07:16:23Z</time>
      </trkpt>
      <trkpt lat="41.2774658" lon="1.8136200">
        <ele>89.81</ele>
        <time>2021-01-03T07:17:38Z</time>
      </trkpt>
      <trkpt lat="41.2776166" lon="1.8137599">
        <ele>90.40</ele>
        <time>2021-01-03T07:17:55Z</time>
      </trkpt>
      <trkpt lat="41.2778009" lon="1.8137567">
        <ele>88.72</ele>
        <time>2021-01-03T07:18:13Z</time>
      </trkpt>
      <trkpt lat="41.2778800" lon="1.8139755">
        <ele>87.35</ele>
        <time>2021-01-03T07:18:54Z</time>
      </trkpt>
      <trkpt lat="41.2779641" lon="1.8137377">
        <ele>87.03</ele>
        <time>2021-01-03T07:20:14Z</time>
      </trkpt>
      <trkpt lat="41.2780744" lon="1.8135428">
        <ele>87.98</ele>
        <time>2021-01-03T07:20:33Z</time>
      </trkpt>
      <trkpt lat="41.2781910" lon="1.8133537">
        <ele>86.90</ele>
        <time>2021-01-03T07:20:55Z</time>
      </trkpt>
      <trkpt lat="41.2783596" lon="1.8132607">
        <ele>90.04</ele>
        <time>2021-01-03T07:21:12Z</time>
      </trkpt>
      <trkpt lat="41.2785417" lon="1.8132418">
        <ele>92.46</ele>
        <time>2021-01-03T07:21:30Z</time>
      </trkpt>
      <trkpt lat="41.2787167" lon="1.8131619">
        <ele>93.81</ele>
        <time>2021-01-03T07:22:01Z</time>
      </trkpt>
      <trkpt lat="41.2788215" lon="1.8129572">
        <ele>98.28</ele>
        <time>2021-01-03T07:22:20Z</time>
      </trkpt>
      <trkpt lat="41.2789153" lon="1.8127475">
        <ele>100.38</ele>
        <time>2021-01-03T07:22:46Z</time>
      </trkpt>
      <trkpt lat="41.2789790" lon="1.8125217">
        <ele>103.91</ele>
        <time>2021-01-03T07:23:14Z</time>
      </trkpt>
      <trkpt lat="41.2790094" lon="1.8122772">
        <ele>105.27</ele>
        <time>2021-01-03T07:23:31Z</time>
      </trkpt>
      <trkpt lat="41.2790621" lon="1.8120441">
        <ele>108.49</ele>
        <time>2021-01-03T07:23:53Z</time>
      </trkpt>
      <trkpt lat="41.2791332" lon="1.8118039">
        <ele>109.40</ele>
        <time>2021-01-03T07:24:18Z</time>
      </trkpt>
      <trkpt lat="41.2792063" lon="1.8115827">
        <ele>111.18</ele>
        <time>2021-01-03T07:24:33Z</time>
      </trkpt>
      <trkpt lat="41.2793654" lon="1.8117151">
        <ele>111.68</ele>
        <time>2021-01-03T07:24:47Z</time>
      </trkpt>
      <trkpt lat="41.2794907" lon="1.8119084">
        <ele>110.72</ele>
        <time>2021-01-03T07:24:59Z</time>
      </trkpt>
      <trkpt lat="41.2795747" lon="1.8121264">
        <ele>111.01</ele>
        <time>2021-01-03T07:25:13Z</time>
      </trkpt>
      <trkpt lat="41.2797039" lon="1.8123075">
        <ele>114.47</ele>
        <time>2021-01-03T07:25:31Z</time>
      </trkpt>
      <trkpt lat="41.2797885" lon="1.8125199">
        <ele>115.63</ele>
        <time>2021-01-03T07:25:50Z</time>
      </trkpt>
      <trkpt lat="41.2798570" lon="1.8127432">
        <ele>112.67</ele>
        <time>2021-01-03T07:26:08Z</time>
      </trkpt>
      <trkpt lat="41.2799620" lon="1.8129513">
        <ele>113.48</ele>
        <time>2021-01-03T07:26:23Z</time>
      </trkpt>
      <trkpt lat="41.2800607" lon="1.8131612">
        <ele>114.35</ele>
        <time>2021-01-03T07:26:45Z</time>
      </trkpt>
      <trkpt lat="41.2801918" lon="1.8133471">
        <ele>111.66</ele>
        <time>2021-01-03T07:27:01Z</time>
      </trkpt>
      <trkpt lat="41.2802929" lon="1.8135579">
        <ele>111.37</ele>
        <time>2021-01-03T07:27:18Z</time>
      </trkpt>
      <trkpt lat="41.2803580" lon="1.8137988">
        <ele>109.58</ele>
        <time>2021-01-03T07:27:34Z</time>
      </trkpt>
      <trkpt lat="41.2804192" lon="1.8140364">
        <ele>105.04</ele>
        <time>2021-01-03T07:27:49Z</time>
      </trkpt>
      <trkpt lat="41.2804936" lon="1.8142637">
        <ele>104.35</ele>
        <time>2021-01-03T07:28:05Z</time>
      </trkpt>
      <trkpt lat="41.2805581" lon="1.8144891">
        <ele>103.10</ele>
        <time>2021-01-03T07:28:21Z</time>
      </trkpt>
      <trkpt lat="41.2806309" lon="1.8147256">
        <ele>101.12</ele>
        <time>2021-01-03T07:28:37Z</time>
      </trkpt>
      <trkpt lat="41.2806856" lon="1.8149685">
        <ele>100.24</ele>
        <time>2021-01-03T07:28:52Z</time>
      </trkpt>
      <trkpt lat="41.2807613" lon="1.8151907">
        <ele>105.07</ele>
        <time>2021-01-03T07:29:06Z</time>
      </trkpt>
      <trkpt lat="41.2806801" lon="1.8154079">
        <ele>103.66</ele>
        <time>2021-01-03T07:29:23Z</time>
      </trkpt>
      <trkpt lat="41.2805427" lon="1.8155714">
        <ele>103.15</ele>
        <time>2021-01-03T07:29:41Z</time>
      </trkpt>
      <trkpt lat="41.2804556" lon="1.8157836">
        <ele>102.41</ele>
        <time>2021-01-03T07:30:04Z</time>
      </trkpt>
      <trkpt lat="41.2803042" lon="1.8159153">
        <ele>102.26</ele>
        <time>2021-01-03T07:30:33Z</time>
      </trkpt>
      <trkpt lat="41.2801487" lon="1.8160429">
        <ele>104.69</ele>
        <time>2021-01-03T07:31:18Z</time>
      </trkpt>
      <trkpt lat="41.2800154" lon="1.8162266">
        <ele>105.09</ele>
        <time>2021-01-03T07:31:43Z</time>
      </trkpt>
      <trkpt lat="41.2799760" lon="1.8164628">
        <ele>103.73</ele>
        <time>2021-01-03T07:32:01Z</time>
      </trkpt>
      <trkpt lat="41.2800813" lon="1.8166746">
        <ele>99.32</ele>
        <time>2021-01-03T07:32:15Z</time>
      </trkpt>
      <trkpt lat="41.2802361" lon="1.8168023">
        <ele>101.19</ele>
        <time>2021-01-03T07:32:33Z</time>
      </trkpt>
      <trkpt lat="41.2804062" lon="1.8168975">
        <ele>103.87</ele>
        <time>2021-01-03T07:32:58Z</time>
      </trkpt>
      <trkpt lat="41.2805668" lon="1.8170223">
        <ele>106.49</ele>
        <time>2021-01-03T07:33:15Z</time>
      </trkpt>
      <trkpt lat="41.2807427" lon="1.8171255">
        <ele>106.90</ele>
        <time>2021-01-03T07:33:34Z</time>
      </trkpt>
      <trkpt lat="41.2809275" lon="1.8171916">
        <ele>109.78</ele>
        <time>2021-01-03T07:33:51Z</time>
      </trkpt>
      <trkpt lat="41.2811020" lon="1.8172593">
        <ele>108.63</ele>
        <time>2021-01-03T07:34:08Z</time>
      </trkpt>
      <trkpt lat="41.2812714" lon="1.8173426">
        <ele>108.83</ele>
        <time>2021-01-03T07:34:24Z</time>
      </trkpt>
      <trkpt lat="41.2814315" lon="1.8174796">
        <ele>110.20</ele>
        <time>2021-01-03T07:34:42Z</time>
      </trkpt>
      <trkpt lat="41.2816152" lon="1.8175447">
        <ele>111.52</ele>
        <time>2021-01-03T07:34:56Z</time>
      </trkpt>
      <trkpt lat="41.2817947" lon="1.8175233">
        <ele>111.33</ele>
        <time>2021-01-03T07:35:11Z</time>
      </trkpt>
      <trkpt lat="41.2819840" lon="1.8175613">
        <ele>111.98</ele>
        <time>2021-01-03T07:35:29Z</time>
      </trkpt>
      <trkpt lat="41.2821466" lon="1.8176818">
        <ele>110.64</ele>
        <time>2021-01-03T07:35:43Z</time>
      </trkpt>
      <trkpt lat="41.2823309" lon="1.8176418">
        <ele>109.68</ele>
        <time>2021-01-03T07:36:00Z</time>
      </trkpt>
      <trkpt lat="41.2825056" lon="1.8175593">
        <ele>107.31</ele>
        <time>2021-01-03T07:36:20Z</time>
      </trkpt>
      <trkpt lat="41.2826843" lon="1.8175260">
        <ele>108.38</ele>
        <time>2021-01-03T07:36:36Z</time>
      </trkpt>
      <trkpt lat="41.2828676" lon="1.8175512">
        <ele>109.65</ele>
        <time>2021-01-03T07:37:02Z</time>
      </trkpt>
      <trkpt lat="41.2829716" lon="1.8177511">
        <ele>108.75</ele>
        <time>2021-01-03T07:37:13Z</time>
      </trkpt>
      <trkpt lat="41.2830782" lon="1.8179644">
        <ele>101.87</ele>
        <time>2021-01-03T07:37:25Z</time>
      </trkpt>
      <trkpt lat="41.2831454" lon="1.8181961">
        <ele>100.87</ele>
        <time>2021-01-03T07:37:41Z</time>
      </trkpt>
      <trkpt lat="41.2831521" lon="1.8184466">
        <ele>100.84</ele>
        <time>2021-01-03T07:37:57Z</time>
      </trkpt>
      <trkpt lat="41.2831447" lon="1.8187006">
        <ele>101.93</ele>
        <time>2021-01-03T07:39:10Z</time>
      </trkpt>
      <trkpt lat="41.2831956" lon="1.8189389">
        <ele>104.68</ele>
        <time>2021-01-03T07:39:27Z</time>
      </trkpt>
      <trkpt lat="41.2831197" lon="1.8191595">
        <ele>110.09</ele>
        <time>2021-01-03T07:39:48Z</time>
      </trkpt>
      <trkpt lat="41.2829993" lon="1.8193445">
        <ele>109.04</ele>
        <time>2021-01-03T07:40:03Z</time>
      </trkpt>
      <trkpt lat="41.2829213" lon="1.8195617">
        <ele>107.38</ele>
        <time>2021-01-03T07:40:19Z</time>
      </trkpt>
      <trkpt lat="41.2828332" lon="1.8197870">
        <ele>107.59</ele>
        <time>2021-01-03T07:40:30Z</time>
      </trkpt>
      <trkpt lat="41.2827861" lon="1.8200334">
        <ele>107.55</ele>
        <time>2021-01-03T07:40:44Z</time>
      </trkpt>
      <trkpt lat="41.2827508" lon="1.8202747">
        <ele>105.99</ele>
        <time>2021-01-03T07:40:56Z</time>
      </trkpt>
      <trkpt lat="41.2827672" lon="1.8205161">
        <ele>106.59</ele>
        <time>2021-01-03T07:41:10Z</time>
      </trkpt>
      <trkpt lat="41.2828218" lon="1.8207491">
        <ele>101.99</ele>
        <time>2021-01-03T07:41:26Z</time>
      </trkpt>
      <trkpt lat="41.2828777" lon="1.8209787">
        <ele>105.62</ele>
        <time>2021-01-03T07:41:42Z</time>
      </trkpt>
      <trkpt lat="41.2828790" lon="1.8212299">
        <ele>105.15</ele>
        <time>2021-01-03T07:41:54Z</time>
      </trkpt>
      <trkpt lat="41.2829069" lon="1.8214756">
        <ele>105.16</ele>
        <time>2021-01-03T07:42:07Z</time>
      </trkpt>
      <trkpt lat="41.2829486" lon="1.8217162">
        <ele>106.19</ele>
        <time>2021-01-03T07:42:20Z</time>
      </trkpt>
      <trkpt lat="41.2829970" lon="1.8219596">
        <ele>107.07</ele>
        <time>2021-01-03T07:42:33Z</time>
      </trkpt>
      <trkpt lat="41.2830410" lon="1.8221974">
        <ele>106.42</ele>
        <time>2021-01-03T07:42:48Z</time>
      </trkpt>
      <trkpt lat="41.2829434" lon="1.8224289">
        <ele>107.86</ele>
        <time>2021-01-03T07:44:02Z</time>
      </trkpt>
      <trkpt lat="41.2827651" lon="1.8225070">
        <ele>108.86</ele>
        <time>2021-01-03T07:44:34Z</time>
      </trkpt>
      <trkpt lat="41.2826746" lon="1.8227207">
        <ele>107.89</ele>
        <time>2021-01-03T07:44:51Z</time>
      </trkpt>
      <trkpt lat="41.2826557" lon="1.8229726">
        <ele>105.45</ele>
        <time>2021-01-03T07:45:03Z</time>
      </trkpt>
      <trkpt lat="41.2825945" lon="1.8232099">
        <ele>106.62</ele>
        <time>2021-01-03T07:45:17Z</time>
      </trkpt>
      <trkpt lat="41.2824717" lon="1.8234017">
        <ele>105.45</ele>
        <time>2021-01-03T07:45:31Z</time>
      </trkpt>
      <trkpt lat="41.2823367" lon="1.8235670">
        <ele>105.66</ele>
        <time>2021-01-03T07:45:45Z</time>
      </trkpt>
      <trkpt lat="41.2821808" lon="1.8237185">
        <ele>107.77</ele>
        <time>2021-01-03T07:45:57Z</time>
      </trkpt>
      <trkpt lat="41.2820201" lon="1.8238495">
        <ele>108.29</ele>
        <time>2021-01-03T07:46:10Z</time>
      </trkpt>
      <trkpt lat="41.2818600" lon="1.8239822">
        <ele>110.15</ele>
        <time>2021-01-03T07:46:25Z</time>
      </trkpt>
      <trkpt lat="41.2816998" lon="1.8241196">
        <ele>111.48</ele>
        <time>2021-01-03T07:46:39Z</time>
      </trkpt>
      <trkpt lat="41.2815550" lon="1.8242709">
        <ele>110.94</ele>
        <time>2021-01-03T07:46:53Z</time>
      </trkpt>
      <trkpt lat="41.2814860" lon="1.8245087">
        <ele>109.12</ele>
        <time>2021-01-03T07:47:08Z</time>
      </trkpt>
      <trkpt lat="41.2815358" lon="1.8247390">
        <ele>107.41</ele>
        <time>2021-01-03T07:47:23Z</time>
      </trkpt>
      <trkpt lat="41.2815468" lon="1.8249819">
        <ele>104.41</ele>
        <time>2021-01-03T07:47:38Z</time>
      </trkpt>
      <trkpt lat="41.2815142" lon="1.8252261">
        <ele>103.94</ele>
        <time>2021-01-03T07:47:53Z</time>
      </trkpt>
      <trkpt lat="41.2814771" lon="1.8254699">
        <ele>108.68</ele>
        <time>2021-01-03T07:48:07Z</time>
      </trkpt>
      <trkpt lat="41.2813945" lon="1.8257053">
        <ele>112.03</ele>
        <time>2021-01-03T07:48:21Z</time>
      </trkpt>
      <trkpt lat="41.2812668" lon="1.8258952">
        <ele>113.41</ele>
        <time>2021-01-03T07:48:34Z</time>
      </trkpt>
      <trkpt lat="41.2811047" lon="1.8260004">
        <ele>113.29</ele>
        <time>2021-01-03T07:48:47Z</time>
      </trkpt>
      <trkpt lat="41.2809359" lon="1.8261242">
        <ele>113.72</ele>
        <time>2021-01-03T07:49:02Z</time>
      </trkpt>
      <trkpt lat="41.2808224" lon="1.8263279">
        <ele>116.33</ele>
        <time>2021-01-03T07:49:14Z</time>
      </trkpt>
      <trkpt lat="41.2807648" lon="1.8265586">
        <ele>116.29</ele>
        <time>2021-01-03T07:49:27Z</time>
      </trkpt>
      <trkpt lat="41.2807944" lon="1.8268103">
        <ele>113.70</ele>
        <time>2021-01-03T07:49:41Z</time>
      </trkpt>
      <trkpt lat="41.2809005" lon="1.8270145">
        <ele>110.77</ele>
        <time>2021-01-03T07:49:57Z</time>
      </trkpt>
      <trkpt lat="41.2808978" lon="1.8272576">
        <ele>116.19</ele>
        <time>2021-01-03T07:50:17Z</time>
      </trkpt>
      <trkpt lat="41.2809042" lon="1.8274995">
        <ele>116.93</ele>
        <time>2021-01-03T07:50:48Z</time>
      </trkpt>
      <trkpt lat="41.2808923" lon="1.8277389">
        <ele>118.49</ele>
        <time>2021-01-03T07:51:03Z</time>
      </trkpt>
      <trkpt lat="41.2808357" lon="1.8279694">
        <ele>117.06</ele>
        <time>2021-01-03T07:51:20Z</time>
      </trkpt>
      <trkpt lat="41.2807857" lon="1.8282101">
        <ele>115.17</ele>
        <time>2021-01-03T07:51:35Z</time>
      </trkpt>
      <trkpt lat="41.2807545" lon="1.8284610">
        <ele>113.16</ele>
        <time>2021-01-03T07:51:46Z</time>
      </trkpt>
      <trkpt lat="41.2807361" lon="1.8287084">
        <ele>113.40</ele>
        <time>2021-01-03T07:51:59Z</time>
      </trkpt>
      <trkpt lat="41.2807045" lon="1.8289592">
        <ele>115.61</ele>
        <time>2021-01-03T07:52:13Z</time>
      </trkpt>
      <trkpt lat="41.2806547" lon="1.8291922">
        <ele>119.39</ele>
        <time>2021-01-03T07:52:28Z</time>
      </trkpt>
      <trkpt lat="41.2805693" lon="1.8294222">
        <ele>120.33</ele>
        <time>2021-01-03T07:52:43Z</time>
      </trkpt>
      <trkpt lat="41.2805037" lon="1.8296533">
        <ele>121.80</ele>
        <time>2021-01-03T07:52:54Z</time>
      </trkpt>
      <trkpt lat="41.2804381" lon="1.8298914">
        <ele>124.54</ele>
        <time>2021-01-03T07:53:06Z</time>
      </trkpt>
      <trkpt lat="41.2803743" lon="1.8301230">
        <ele>126.87</ele>
        <time>2021-01-03T07:53:20Z</time>
      </trkpt>
      <trkpt lat="41.2803136" lon="1.8303528">
        <ele>126.94</ele>
        <time>2021-01-03T07:53:35Z</time>
      </trkpt>
      <trkpt lat="41.2802596" lon="1.8305903">
        <ele>124.28</ele>
        <time>2021-01-03T07:53:48Z</time>
      </trkpt>
      <trkpt lat="41.2801827" lon="1.8308186">
        <ele>123.14</ele>
        <time>2021-01-03T07:54:00Z</time>
      </trkpt>
      <trkpt lat="41.2800989" lon="1.8310331">
        <ele>122.87</ele>
        <time>2021-01-03T07:54:12Z</time>
      </trkpt>
      <trkpt lat="41.2800274" lon="1.8312605">
        <ele>124.77</ele>
        <time>2021-01-03T07:54:26Z</time>
      </trkpt>
      <trkpt lat="41.2799514" lon="1.8314959">
        <ele>125.89</ele>
        <time>2021-01-03T07:54:40Z</time>
      </trkpt>
      <trkpt lat="41.2798887" lon="1.8317362">
        <ele>126.45</ele>
        <time>2021-01-03T07:54:55Z</time>
      </trkpt>
      <trkpt lat="41.2798007" lon="1.8319529">
        <ele>126.32</ele>
        <time>2021-01-03T07:55:09Z</time>
      </trkpt>
      <trkpt lat="41.2797003" lon="1.8321597">
        <ele>127.25</ele>
        <time>2021-01-03T07:55:22Z</time>
      </trkpt>
      <trkpt lat="41.2795810" lon="1.8323485">
        <ele>127.07</ele>
        <time>2021-01-03T07:55:36Z</time>
      </trkpt>
      <trkpt lat="41.2794359" lon="1.8325181">
        <ele>125.79</ele>
        <time>2021-01-03T07:55:50Z</time>
      </trkpt>
      <trkpt lat="41.2792828" lon="1.8326633">
        <ele>126.29</ele>
        <time>2021-01-03T07:56:03Z</time>
      </trkpt>
      <trkpt lat="41.2791950" lon="1.8328943">
        <ele>128.92</ele>
        <time>2021-01-03T07:56:15Z</time>
      </trkpt>
      <trkpt lat="41.2791127" lon="1.8331165">
        <ele>129.83</ele>
        <time>2021-01-03T07:56:26Z</time>
      </trkpt>
      <trkpt lat="41.2790173" lon="1.8333221">
        <ele>127.51</ele>
        <time>2021-01-03T07:56:42Z</time>
      </trkpt>
      <trkpt lat="41.2788775" lon="1.8334800">
        <ele>127.98</ele>
        <time>2021-01-03T07:56:58Z</time>
      </trkpt>
      <trkpt lat="41.2787596" lon="1.8336857">
        <ele>128.49</ele>
        <time>2021-01-03T07:57:10Z</time>
      </trkpt>
      <trkpt lat="41.2786806" lon="1.8339024">
        <ele>128.64</ele>
        <time>2021-01-03T07:57:22Z</time>
      </trkpt>
      <trkpt lat="41.2785441" lon="1.8340708">
        <ele>128.01</ele>
        <time>2021-01-03T07:57:35Z</time>
      </trkpt>
      <trkpt lat="41.2783745" lon="1.8341656">
        <ele>126.09</ele>
        <time>2021-01-03T07:57:49Z</time>
      </trkpt>
      <trkpt lat="41.2782050" lon="1.8342816">
        <ele>126.85</ele>
        <time>2021-01-03T07:58:00Z</time>
      </trkpt>
      <trkpt lat="41.2780396" lon="1.8343793">
        <ele>129.22</ele>
        <time>2021-01-03T07:58:16Z</time>
      </trkpt>
      <trkpt lat="41.2779011" lon="1.8345486">
        <ele>129.34</ele>
        <time>2021-01-03T07:58:26Z</time>
      </trkpt>
      <trkpt lat="41.2779166" lon="1.8348008">
        <ele>125.22</ele>
        <time>2021-01-03T07:58:42Z</time>
      </trkpt>
      <trkpt lat="41.2780299" lon="1.8349898">
        <ele>125.66</ele>
        <time>2021-01-03T07:58:58Z</time>
      </trkpt>
      <trkpt lat="41.2781780" lon="1.8351421">
        <ele>129.56</ele>
        <time>2021-01-03T07:59:14Z</time>
      </trkpt>
      <trkpt lat="41.2783576" lon="1.8351039">
        <ele>132.81</ele>
        <time>2021-01-03T07:59:37Z</time>
      </trkpt>
      <trkpt lat="41.2783543" lon="1.8353924">
        <ele>152.01</ele>
        <time>2021-01-03T08:11:27Z</time>
      </trkpt>
      <trkpt lat="41.2785456" lon="1.8351712">
        <ele>132.72</ele>
        <time>2021-01-03T08:11:28Z</time>
      </trkpt>
      <trkpt lat="41.2783517" lon="1.8351930">
        <ele>150.84</ele>
        <time>2021-01-03T08:11:31Z</time>
      </trkpt>
      <trkpt lat="41.2783536" lon="1.8349988">
        <ele>159.60</ele>
        <time>2021-01-03T08:34:17Z</time>
      </trkpt>
      <trkpt lat="41.2782779" lon="1.8352344">
        <ele>138.13</ele>
        <time>2021-01-03T08:34:18Z</time>
      </trkpt>
      <trkpt lat="41.2782597" lon="1.8354836">
        <ele>136.47</ele>
        <time>2021-01-03T08:34:56Z</time>
      </trkpt>
      <trkpt lat="41.2780985" lon="1.8356061">
        <ele>141.30</ele>
        <time>2021-01-03T08:35:13Z</time>
      </trkpt>
      <trkpt lat="41.2779285" lon="1.8357120">
        <ele>137.68</ele>
        <time>2021-01-03T08:35:36Z</time>
      </trkpt>
      <trkpt lat="41.2777558" lon="1.8358053">
        <ele>143.37</ele>
        <time>2021-01-03T08:36:00Z</time>
      </trkpt>
      <trkpt lat="41.2776055" lon="1.8359575">
        <ele>150.34</ele>
        <time>2021-01-03T08:36:31Z</time>
      </trkpt>
      <trkpt lat="41.2775312" lon="1.8361842">
        <ele>145.13</ele>
        <time>2021-01-03T08:36:51Z</time>
      </trkpt>
      <trkpt lat="41.2773517" lon="1.8361619">
        <ele>144.04</ele>
        <time>2021-01-03T08:37:24Z</time>
      </trkpt>
      <trkpt lat="41.2773440" lon="1.8359161">
        <ele>144.80</ele>
        <time>2021-01-03T08:37:53Z</time>
      </trkpt>
      <trkpt lat="41.2773449" lon="1.8356678">
        <ele>148.37</ele>
        <time>2021-01-03T08:38:13Z</time>
      </trkpt>
      <trkpt lat="41.2773244" lon="1.8354237">
        <ele>149.99</ele>
        <time>2021-01-03T08:38:28Z</time>
      </trkpt>
      <trkpt lat="41.2772837" lon="1.8351874">
        <ele>148.40</ele>
        <time>2021-01-03T08:38:42Z</time>
      </trkpt>
      <trkpt lat="41.2771199" lon="1.8350734">
        <ele>146.65</ele>
        <time>2021-01-03T08:39:05Z</time>
      </trkpt>
      <trkpt lat="41.2769397" lon="1.8350930">
        <ele>159.06</ele>
        <time>2021-01-03T08:39:42Z</time>
      </trkpt>
      <trkpt lat="41.2767773" lon="1.8349892">
        <ele>161.64</ele>
        <time>2021-01-03T08:40:21Z</time>
      </trkpt>
      <trkpt lat="41.2765949" lon="1.8349960">
        <ele>162.33</ele>
        <time>2021-01-03T08:40:43Z</time>
      </trkpt>
      <trkpt lat="41.2765171" lon="1.8347764">
        <ele>166.25</ele>
        <time>2021-01-03T08:41:14Z</time>
      </trkpt>
      <trkpt lat="41.2764724" lon="1.8345407">
        <ele>169.68</ele>
        <time>2021-01-03T08:41:57Z</time>
      </trkpt>
      <trkpt lat="41.2763017" lon="1.8346388">
        <ele>176.93</ele>
        <time>2021-01-03T08:42:35Z</time>
      </trkpt>
      <trkpt lat="41.2762137" lon="1.8348483">
        <ele>179.02</ele>
        <time>2021-01-03T08:43:01Z</time>
      </trkpt>
      <trkpt lat="41.2760974" lon="1.8350622">
        <ele>177.50</ele>
        <time>2021-01-03T08:43:22Z</time>
      </trkpt>
      <trkpt lat="41.2759674" lon="1.8352295">
        <ele>178.39</ele>
        <time>2021-01-03T08:43:39Z</time>
      </trkpt>
      <trkpt lat="41.2758053" lon="1.8353600">
        <ele>178.51</ele>
        <time>2021-01-03T08:43:49Z</time>
      </trkpt>
      <trkpt lat="41.2758918" lon="1.8351475">
        <ele>179.56</ele>
        <time>2021-01-03T08:44:21Z</time>
      </trkpt>
      <trkpt lat="41.2760260" lon="1.8349786">
        <ele>179.47</ele>
        <time>2021-01-03T08:44:37Z</time>
      </trkpt>
      <trkpt lat="41.2761433" lon="1.8347959">
        <ele>175.63</ele>
        <time>2021-01-03T08:44:49Z</time>
      </trkpt>
      <trkpt lat="41.2761055" lon="1.8345560">
        <ele>172.21</ele>
        <time>2021-01-03T08:45:12Z</time>
      </trkpt>
      <trkpt lat="41.2759196" lon="1.8345091">
        <ele>171.91</ele>
        <time>2021-01-03T08:45:28Z</time>
      </trkpt>
      <trkpt lat="41.2761049" lon="1.8345617">
        <ele>172.93</ele>
        <time>2021-01-03T08:47:49Z</time>
      </trkpt>
      <trkpt lat="41.2761102" lon="1.8348077">
        <ele>173.04</ele>
        <time>2021-01-03T08:48:23Z</time>
      </trkpt>
      <trkpt lat="41.2759957" lon="1.8349986">
        <ele>172.60</ele>
        <time>2021-01-03T08:48:36Z</time>
      </trkpt>
      <trkpt lat="41.2759014" lon="1.8352050">
        <ele>171.74</ele>
        <time>2021-01-03T08:48:51Z</time>
      </trkpt>
      <trkpt lat="41.2760795" lon="1.8351290">
        <ele>174.21</ele>
        <time>2021-01-03T08:49:10Z</time>
      </trkpt>
      <trkpt lat="41.2761922" lon="1.8349205">
        <ele>171.56</ele>
        <time>2021-01-03T08:49:23Z</time>
      </trkpt>
      <trkpt lat="41.2762663" lon="1.8347007">
        <ele>172.14</ele>
        <time>2021-01-03T08:49:37Z</time>
      </trkpt>
      <trkpt lat="41.2763590" lon="1.8344893">
        <ele>173.37</ele>
        <time>2021-01-03T08:49:53Z</time>
      </trkpt>
      <trkpt lat="41.2762373" lon="1.8343070">
        <ele>172.76</ele>
        <time>2021-01-03T08:50:10Z</time>
      </trkpt>
      <trkpt lat="41.2760587" lon="1.8342222">
        <ele>169.05</ele>
        <time>2021-01-03T08:50:27Z</time>
      </trkpt>
      <trkpt lat="41.2758725" lon="1.8342096">
        <ele>166.41</ele>
        <time>2021-01-03T08:50:49Z</time>
      </trkpt>
      <trkpt lat="41.2756986" lon="1.8341443">
        <ele>166.29</ele>
        <time>2021-01-03T08:51:09Z</time>
      </trkpt>
      <trkpt lat="41.2755188" lon="1.8341738">
        <ele>160.08</ele>
        <time>2021-01-03T08:51:28Z</time>
      </trkpt>
      <trkpt lat="41.2753716" lon="1.8343181">
        <ele>155.04</ele>
        <time>2021-01-03T08:51:58Z</time>
      </trkpt>
      <trkpt lat="41.2751834" lon="1.8343389">
        <ele>156.27</ele>
        <time>2021-01-03T08:52:30Z</time>
      </trkpt>
      <trkpt lat="41.2749934" lon="1.8343070">
        <ele>156.55</ele>
        <time>2021-01-03T08:52:42Z</time>
      </trkpt>
      <trkpt lat="41.2750315" lon="1.8340652">
        <ele>158.30</ele>
        <time>2021-01-03T08:53:08Z</time>
      </trkpt>
      <trkpt lat="41.2751430" lon="1.8338721">
        <ele>159.58</ele>
        <time>2021-01-03T08:53:29Z</time>
      </trkpt>
      <trkpt lat="41.2752344" lon="1.8336581">
        <ele>160.66</ele>
        <time>2021-01-03T08:53:45Z</time>
      </trkpt>
      <trkpt lat="41.2752415" lon="1.8334083">
        <ele>160.81</ele>
        <time>2021-01-03T08:54:04Z</time>
      </trkpt>
      <trkpt lat="41.2751322" lon="1.8332095">
        <ele>163.27</ele>
        <time>2021-01-03T08:54:24Z</time>
      </trkpt>
      <trkpt lat="41.2749780" lon="1.8330754">
        <ele>165.82</ele>
        <time>2021-01-03T08:54:42Z</time>
      </trkpt>
      <trkpt lat="41.2748118" lon="1.8329722">
        <ele>167.11</ele>
        <time>2021-01-03T08:55:01Z</time>
      </trkpt>
      <trkpt lat="41.2746384" lon="1.8328918">
        <ele>168.81</ele>
        <time>2021-01-03T08:55:17Z</time>
      </trkpt>
      <trkpt lat="41.2744691" lon="1.8328049">
        <ele>169.79</ele>
        <time>2021-01-03T08:55:31Z</time>
      </trkpt>
      <trkpt lat="41.2743515" lon="1.8326169">
        <ele>173.49</ele>
        <time>2021-01-03T08:55:50Z</time>
      </trkpt>
      <trkpt lat="41.2742596" lon="1.8324070">
        <ele>176.25</ele>
        <time>2021-01-03T08:56:11Z</time>
      </trkpt>
      <trkpt lat="41.2741947" lon="1.8321720">
        <ele>179.26</ele>
        <time>2021-01-03T08:56:30Z</time>
      </trkpt>
      <trkpt lat="41.2741574" lon="1.8319340">
        <ele>181.49</ele>
        <time>2021-01-03T08:56:48Z</time>
      </trkpt>
      <trkpt lat="41.2740716" lon="1.8317130">
        <ele>181.06</ele>
        <time>2021-01-03T08:57:11Z</time>
      </trkpt>
      <trkpt lat="41.2739615" lon="1.8315192">
        <ele>183.15</ele>
        <time>2021-01-03T08:57:35Z</time>
      </trkpt>
      <trkpt lat="41.2738350" lon="1.8313412">
        <ele>183.41</ele>
        <time>2021-01-03T08:57:53Z</time>
      </trkpt>
      <trkpt lat="41.2737269" lon="1.8311417">
        <ele>183.77</ele>
        <time>2021-01-03T08:58:11Z</time>
      </trkpt>
      <trkpt lat="41.2736054" lon="1.8309501">
        <ele>185.11</ele>
        <time>2021-01-03T08:58:30Z</time>
      </trkpt>
      <trkpt lat="41.2734975" lon="1.8307529">
        <ele>184.03</ele>
        <time>2021-01-03T08:58:48Z</time>
      </trkpt>
      <trkpt lat="41.2734030" lon="1.8305438">
        <ele>184.01</ele>
        <time>2021-01-03T08:59:07Z</time>
      </trkpt>
      <trkpt lat="41.2732781" lon="1.8303688">
        <ele>185.36</ele>
        <time>2021-01-03T08:59:26Z</time>
      </trkpt>
      <trkpt lat="41.2732119" lon="1.8301435">
        <ele>187.08</ele>
        <time>2021-01-03T08:59:44Z</time>
      </trkpt>
      <trkpt lat="41.2730973" lon="1.8299548">
        <ele>188.53</ele>
        <time>2021-01-03T09:00:03Z</time>
      </trkpt>
      <trkpt lat="41.2729957" lon="1.8297514">
        <ele>191.30</ele>
        <time>2021-01-03T09:00:21Z</time>
      </trkpt>
      <trkpt lat="41.2728498" lon="1.8296046">
        <ele>191.25</ele>
        <time>2021-01-03T09:00:38Z</time>
      </trkpt>
      <trkpt lat="41.2726800" lon="1.8295094">
        <ele>190.90</ele>
        <time>2021-01-03T09:00:56Z</time>
      </trkpt>
      <trkpt lat="41.2725186" lon="1.8293821">
        <ele>187.39</ele>
        <time>2021-01-03T09:01:14Z</time>
      </trkpt>
      <trkpt lat="41.2723329" lon="1.8293202">
        <ele>185.77</ele>
        <time>2021-01-03T09:01:35Z</time>
      </trkpt>
      <trkpt lat="41.2721463" lon="1.8292485">
        <ele>187.00</ele>
        <time>2021-01-03T09:01:51Z</time>
      </trkpt>
      <trkpt lat="41.2719947" lon="1.8291153">
        <ele>187.46</ele>
        <time>2021-01-03T09:02:08Z</time>
      </trkpt>
      <trkpt lat="41.2719815" lon="1.8288730">
        <ele>189.77</ele>
        <time>2021-01-03T09:02:27Z</time>
      </trkpt>
      <trkpt lat="41.2719476" lon="1.8286346">
        <ele>195.37</ele>
        <time>2021-01-03T09:02:49Z</time>
      </trkpt>
      <trkpt lat="41.2718938" lon="1.8284054">
        <ele>202.85</ele>
        <time>2021-01-03T09:03:12Z</time>
      </trkpt>
      <trkpt lat="41.2718055" lon="1.8281958">
        <ele>203.67</ele>
        <time>2021-01-03T09:03:32Z</time>
      </trkpt>
      <trkpt lat="41.2716743" lon="1.8280273">
        <ele>204.95</ele>
        <time>2021-01-03T09:03:51Z</time>
      </trkpt>
      <trkpt lat="41.2718141" lon="1.8278759">
        <ele>209.09</ele>
        <time>2021-01-03T09:05:12Z</time>
      </trkpt>
      <trkpt lat="41.2719937" lon="1.8278164">
        <ele>211.77</ele>
        <time>2021-01-03T09:05:27Z</time>
      </trkpt>
      <trkpt lat="41.2721251" lon="1.8276352">
        <ele>214.85</ele>
        <time>2021-01-03T09:05:45Z</time>
      </trkpt>
      <trkpt lat="41.2721512" lon="1.8273849">
        <ele>214.38</ele>
        <time>2021-01-03T09:06:09Z</time>
      </trkpt>
      <trkpt lat="41.2722842" lon="1.8272192">
        <ele>215.47</ele>
        <time>2021-01-03T09:06:24Z</time>
      </trkpt>
      <trkpt lat="41.2724343" lon="1.8270686">
        <ele>215.14</ele>
        <time>2021-01-03T09:06:41Z</time>
      </trkpt>
      <trkpt lat="41.2725889" lon="1.8269240">
        <ele>215.28</ele>
        <time>2021-01-03T09:07:01Z</time>
      </trkpt>
      <trkpt lat="41.2727200" lon="1.8267529">
        <ele>214.43</ele>
        <time>2021-01-03T09:07:16Z</time>
      </trkpt>
      <trkpt lat="41.2728417" lon="1.8265673">
        <ele>216.30</ele>
        <time>2021-01-03T09:07:33Z</time>
      </trkpt>
      <trkpt lat="41.2729213" lon="1.8263409">
        <ele>217.32</ele>
        <time>2021-01-03T09:07:50Z</time>
      </trkpt>
      <trkpt lat="41.2729894" lon="1.8261193">
        <ele>216.44</ele>
        <time>2021-01-03T09:08:05Z</time>
      </trkpt>
      <trkpt lat="41.2730553" lon="1.8258901">
        <ele>215.66</ele>
        <time>2021-01-03T09:08:28Z</time>
      </trkpt>
      <trkpt lat="41.2730763" lon="1.8256502">
        <ele>220.25</ele>
        <time>2021-01-03T09:08:50Z</time>
      </trkpt>
      <trkpt lat="41.2732401" lon="1.8255411">
        <ele>221.44</ele>
        <time>2021-01-03T09:09:11Z</time>
      </trkpt>
      <trkpt lat="41.2733654" lon="1.8253586">
        <ele>219.45</ele>
        <time>2021-01-03T09:09:31Z</time>
      </trkpt>
      <trkpt lat="41.2735449" lon="1.8252761">
        <ele>225.45</ele>
        <time>2021-01-03T09:09:49Z</time>
      </trkpt>
      <trkpt lat="41.2737239" lon="1.8252305">
        <ele>231.36</ele>
        <time>2021-01-03T09:10:24Z</time>
      </trkpt>
      <trkpt lat="41.2739053" lon="1.8251692">
        <ele>230.86</ele>
        <time>2021-01-03T09:11:19Z</time>
      </trkpt>
      <trkpt lat="41.2740108" lon="1.8249729">
        <ele>229.56</ele>
        <time>2021-01-03T09:11:39Z</time>
      </trkpt>
      <trkpt lat="41.2741061" lon="1.8247602">
        <ele>230.20</ele>
        <time>2021-01-03T09:11:54Z</time>
      </trkpt>
      <trkpt lat="41.2742421" lon="1.8245842">
        <ele>230.31</ele>
        <time>2021-01-03T09:12:11Z</time>
      </trkpt>
      <trkpt lat="41.2744142" lon="1.8244970">
        <ele>231.50</ele>
        <time>2021-01-03T09:12:29Z</time>
      </trkpt>
      <trkpt lat="41.2745266" lon="1.8243014">
        <ele>232.37</ele>
        <time>2021-01-03T09:12:55Z</time>
      </trkpt>
      <trkpt lat="41.2745616" lon="1.8240541">
        <ele>230.94</ele>
        <time>2021-01-03T09:13:23Z</time>
      </trkpt>
      <trkpt lat="41.2745304" lon="1.8238073">
        <ele>232.55</ele>
        <time>2021-01-03T09:13:45Z</time>
      </trkpt>
      <trkpt lat="41.2745269" lon="1.8235620">
        <ele>233.17</ele>
        <time>2021-01-03T09:14:03Z</time>
      </trkpt>
      <trkpt lat="41.2744750" lon="1.8233314">
        <ele>234.65</ele>
        <time>2021-01-03T09:15:02Z</time>
      </trkpt>
      <trkpt lat="41.2744675" lon="1.8230669">
        <ele>237.20</ele>
        <time>2021-01-03T09:15:31Z</time>
      </trkpt>
      <trkpt lat="41.2744004" lon="1.8228417">
        <ele>241.17</ele>
        <time>2021-01-03T09:15:50Z</time>
      </trkpt>
      <trkpt lat="41.2744001" lon="1.8225968">
        <ele>244.22</ele>
        <time>2021-01-03T09:16:27Z</time>
      </trkpt>
      <trkpt lat="41.2743298" lon="1.8223738">
        <ele>246.29</ele>
        <time>2021-01-03T09:16:47Z</time>
      </trkpt>
      <trkpt lat="41.2742645" lon="1.8221427">
        <ele>248.01</ele>
        <time>2021-01-03T09:17:04Z</time>
      </trkpt>
      <trkpt lat="41.2741988" lon="1.8219096">
        <ele>248.62</ele>
        <time>2021-01-03T09:17:23Z</time>
      </trkpt>
      <trkpt lat="41.2742498" lon="1.8216674">
        <ele>249.38</ele>
        <time>2021-01-03T09:17:43Z</time>
      </trkpt>
      <trkpt lat="41.2743510" lon="1.8214663">
        <ele>249.15</ele>
        <time>2021-01-03T09:18:01Z</time>
      </trkpt>
      <trkpt lat="41.2743868" lon="1.8212247">
        <ele>249.99</ele>
        <time>2021-01-03T09:18:28Z</time>
      </trkpt>
      <trkpt lat="41.2744401" lon="1.8209929">
        <ele>250.96</ele>
        <time>2021-01-03T09:18:58Z</time>
      </trkpt>
      <trkpt lat="41.2744657" lon="1.8207454">
        <ele>247.75</ele>
        <time>2021-01-03T09:19:34Z</time>
      </trkpt>
      <trkpt lat="41.2744522" lon="1.8206301">
        <ele>264.35</ele>
        <time>2021-01-03T09:40:01Z</time>
      </trkpt>
      <trkpt lat="41.2744737" lon="1.8209785">
        <ele>230.30</ele>
        <time>2021-01-03T09:40:04Z</time>
      </trkpt>
      <trkpt lat="41.2744290" lon="1.8205786">
        <ele>247.77</ele>
        <time>2021-01-03T09:40:04Z</time>
      </trkpt>
      <trkpt lat="41.2744207" lon="1.8207254">
        <ele>249.57</ele>
        <time>2021-01-03T09:41:32Z</time>
      </trkpt>
      <trkpt lat="41.2744250" lon="1.8204793">
        <ele>254.04</ele>
        <time>2021-01-03T09:42:26Z</time>
      </trkpt>
      <trkpt lat="41.2743788" lon="1.8202420">
        <ele>251.22</ele>
        <time>2021-01-03T09:42:56Z</time>
      </trkpt>
      <trkpt lat="41.2742238" lon="1.8201095">
        <ele>248.30</ele>
        <time>2021-01-03T09:43:12Z</time>
      </trkpt>
      <trkpt lat="41.2741403" lon="1.8198933">
        <ele>245.24</ele>
        <time>2021-01-03T09:43:29Z</time>
      </trkpt>
      <trkpt lat="41.2739728" lon="1.8198006">
        <ele>241.93</ele>
        <time>2021-01-03T09:43:49Z</time>
      </trkpt>
      <trkpt lat="41.2737953" lon="1.8197041">
        <ele>242.78</ele>
        <time>2021-01-03T09:44:06Z</time>
      </trkpt>
      <trkpt lat="41.2736563" lon="1.8195497">
        <ele>247.77</ele>
        <time>2021-01-03T09:44:21Z</time>
      </trkpt>
      <trkpt lat="41.2735271" lon="1.8193673">
        <ele>248.22</ele>
        <time>2021-01-03T09:44:40Z</time>
      </trkpt>
      <trkpt lat="41.2733685" lon="1.8192459">
        <ele>251.14</ele>
        <time>2021-01-03T09:45:04Z</time>
      </trkpt>
      <trkpt lat="41.2733144" lon="1.8190089">
        <ele>252.61</ele>
        <time>2021-01-03T09:45:55Z</time>
      </trkpt>
      <trkpt lat="41.2732377" lon="1.8187825">
        <ele>251.05</ele>
        <time>2021-01-03T09:46:11Z</time>
      </trkpt>
      <trkpt lat="41.2731755" lon="1.8185564">
        <ele>250.81</ele>
        <time>2021-01-03T09:46:28Z</time>
      </trkpt>
      <trkpt lat="41.2730658" lon="1.8183666">
        <ele>249.76</ele>
        <time>2021-01-03T09:46:43Z</time>
      </trkpt>
      <trkpt lat="41.2729617" lon="1.8181580">
        <ele>249.04</ele>
        <time>2021-01-03T09:47:02Z</time>
      </trkpt>
      <trkpt lat="41.2728449" lon="1.8179698">
        <ele>243.73</ele>
        <time>2021-01-03T09:47:23Z</time>
      </trkpt>
      <trkpt lat="41.2727463" lon="1.8177648">
        <ele>240.07</ele>
        <time>2021-01-03T09:47:48Z</time>
      </trkpt>
      <trkpt lat="41.2727225" lon="1.8175222">
        <ele>234.76</ele>
        <time>2021-01-03T09:49:27Z</time>
      </trkpt>
      <trkpt lat="41.2725845" lon="1.8173437">
        <ele>232.39</ele>
        <time>2021-01-03T09:49:46Z</time>
      </trkpt>
      <trkpt lat="41.2724405" lon="1.8171909">
        <ele>229.66</ele>
        <time>2021-01-03T09:50:06Z</time>
      </trkpt>
      <trkpt lat="41.2723075" lon="1.8170207">
        <ele>230.01</ele>
        <time>2021-01-03T09:50:20Z</time>
      </trkpt>
      <trkpt lat="41.2721444" lon="1.8169177">
        <ele>231.84</ele>
        <time>2021-01-03T09:50:35Z</time>
      </trkpt>
      <trkpt lat="41.2719741" lon="1.8168309">
        <ele>229.23</ele>
        <time>2021-01-03T09:50:50Z</time>
      </trkpt>
      <trkpt lat="41.2717937" lon="1.8167497">
        <ele>225.02</ele>
        <time>2021-01-03T09:51:10Z</time>
      </trkpt>
      <trkpt lat="41.2716083" lon="1.8166670">
        <ele>223.68</ele>
        <time>2021-01-03T09:51:23Z</time>
      </trkpt>
      <trkpt lat="41.2714252" lon="1.8166052">
        <ele>221.47</ele>
        <time>2021-01-03T09:51:39Z</time>
      </trkpt>
      <trkpt lat="41.2712558" lon="1.8165059">
        <ele>217.86</ele>
        <time>2021-01-03T09:51:54Z</time>
      </trkpt>
      <trkpt lat="41.2711087" lon="1.8163497">
        <ele>213.83</ele>
        <time>2021-01-03T09:52:10Z</time>
      </trkpt>
      <trkpt lat="41.2710426" lon="1.8161250">
        <ele>211.73</ele>
        <time>2021-01-03T09:52:25Z</time>
      </trkpt>
      <trkpt lat="41.2709755" lon="1.8158869">
        <ele>209.68</ele>
        <time>2021-01-03T09:52:41Z</time>
      </trkpt>
      <trkpt lat="41.2708965" lon="1.8156516">
        <ele>209.33</ele>
        <time>2021-01-03T09:52:55Z</time>
      </trkpt>
      <trkpt lat="41.2708433" lon="1.8154129">
        <ele>205.75</ele>
        <time>2021-01-03T09:53:09Z</time>
      </trkpt>
      <trkpt lat="41.2707953" lon="1.8151734">
        <ele>203.08</ele>
        <time>2021-01-03T09:53:24Z</time>
      </trkpt>
      <trkpt lat="41.2707584" lon="1.8149273">
        <ele>197.91</ele>
        <time>2021-01-03T09:53:39Z</time>
      </trkpt>
      <trkpt lat="41.2707281" lon="1.8146884">
        <ele>194.01</ele>
        <time>2021-01-03T09:53:54Z</time>
      </trkpt>
      <trkpt lat="41.2706964" lon="1.8144419">
        <ele>192.06</ele>
        <time>2021-01-03T09:54:09Z</time>
      </trkpt>
      <trkpt lat="41.2706303" lon="1.8142134">
        <ele>190.57</ele>
        <time>2021-01-03T09:54:24Z</time>
      </trkpt>
      <trkpt lat="41.2705430" lon="1.8139897">
        <ele>190.21</ele>
        <time>2021-01-03T09:54:39Z</time>
      </trkpt>
      <trkpt lat="41.2704584" lon="1.8137624">
        <ele>188.45</ele>
        <time>2021-01-03T09:54:53Z</time>
      </trkpt>
      <trkpt lat="41.2704223" lon="1.8135274">
        <ele>186.23</ele>
        <time>2021-01-03T09:55:06Z</time>
      </trkpt>
      <trkpt lat="41.2703448" lon="1.8132925">
        <ele>183.77</ele>
        <time>2021-01-03T09:55:20Z</time>
      </trkpt>
      <trkpt lat="41.2702446" lon="1.8130792">
        <ele>181.08</ele>
        <time>2021-01-03T09:55:34Z</time>
      </trkpt>
      <trkpt lat="41.2701193" lon="1.8128930">
        <ele>180.11</ele>
        <time>2021-01-03T09:55:48Z</time>
      </trkpt>
      <trkpt lat="41.2699829" lon="1.8127169">
        <ele>179.25</ele>
        <time>2021-01-03T09:56:02Z</time>
      </trkpt>
      <trkpt lat="41.2698484" lon="1.8125489">
        <ele>178.85</ele>
        <time>2021-01-03T09:56:16Z</time>
      </trkpt>
      <trkpt lat="41.2696978" lon="1.8124014">
        <ele>181.14</ele>
        <time>2021-01-03T09:56:30Z</time>
      </trkpt>
      <trkpt lat="41.2695445" lon="1.8122523">
        <ele>183.40</ele>
        <time>2021-01-03T09:56:44Z</time>
      </trkpt>
      <trkpt lat="41.2693994" lon="1.8120936">
        <ele>184.07</ele>
        <time>2021-01-03T09:56:59Z</time>
      </trkpt>
      <trkpt lat="41.2692508" lon="1.8119482">
        <ele>186.00</ele>
        <time>2021-01-03T09:57:14Z</time>
      </trkpt>
      <trkpt lat="41.2691048" lon="1.8117888">
        <ele>189.74</ele>
        <time>2021-01-03T09:57:28Z</time>
      </trkpt>
      <trkpt lat="41.2689689" lon="1.8116204">
        <ele>191.33</ele>
        <time>2021-01-03T09:57:42Z</time>
      </trkpt>
      <trkpt lat="41.2688191" lon="1.8114611">
        <ele>193.37</ele>
        <time>2021-01-03T09:57:56Z</time>
      </trkpt>
      <trkpt lat="41.2686661" lon="1.8113331">
        <ele>195.93</ele>
        <time>2021-01-03T09:58:10Z</time>
      </trkpt>
      <trkpt lat="41.2685145" lon="1.8111764">
        <ele>196.44</ele>
        <time>2021-01-03T09:58:24Z</time>
      </trkpt>
      <trkpt lat="41.2683796" lon="1.8110055">
        <ele>197.18</ele>
        <time>2021-01-03T09:58:38Z</time>
      </trkpt>
      <trkpt lat="41.2682144" lon="1.8108790">
        <ele>197.84</ele>
        <time>2021-01-03T09:58:52Z</time>
      </trkpt>
      <trkpt lat="41.2680921" lon="1.8106981">
        <ele>199.89</ele>
        <time>2021-01-03T09:59:07Z</time>
      </trkpt>
      <trkpt lat="41.2679554" lon="1.8105237">
        <ele>194.43</ele>
        <time>2021-01-03T10:00:03Z</time>
      </trkpt>
      <trkpt lat="41.2678067" lon="1.8103602">
        <ele>192.45</ele>
        <time>2021-01-03T10:00:18Z</time>
      </trkpt>
      <trkpt lat="41.2676602" lon="1.8102018">
        <ele>190.29</ele>
        <time>2021-01-03T10:00:30Z</time>
      </trkpt>
      <trkpt lat="41.2675895" lon="1.8099801">
        <ele>188.71</ele>
        <time>2021-01-03T10:01:14Z</time>
      </trkpt>
      <trkpt lat="41.2676255" lon="1.8097449">
        <ele>189.92</ele>
        <time>2021-01-03T10:01:39Z</time>
      </trkpt>
      <trkpt lat="41.2676266" lon="1.8094996">
        <ele>190.02</ele>
        <time>2021-01-03T10:01:53Z</time>
      </trkpt>
      <trkpt lat="41.2676892" lon="1.8092670">
        <ele>188.65</ele>
        <time>2021-01-03T10:02:10Z</time>
      </trkpt>
      <trkpt lat="41.2678216" lon="1.8091019">
        <ele>187.86</ele>
        <time>2021-01-03T10:02:24Z</time>
      </trkpt>
      <trkpt lat="41.2679943" lon="1.8090330">
        <ele>184.17</ele>
        <time>2021-01-03T10:02:42Z</time>
      </trkpt>
      <trkpt lat="41.2679791" lon="1.8087785">
        <ele>181.79</ele>
        <time>2021-01-03T10:02:57Z</time>
      </trkpt>
      <trkpt lat="41.2679053" lon="1.8085516">
        <ele>179.84</ele>
        <time>2021-01-03T10:03:14Z</time>
      </trkpt>
      <trkpt lat="41.2678854" lon="1.8083027">
        <ele>178.88</ele>
        <time>2021-01-03T10:03:37Z</time>
      </trkpt>
      <trkpt lat="41.2678851" lon="1.8080456">
        <ele>180.48</ele>
        <time>2021-01-03T10:03:53Z</time>
      </trkpt>
      <trkpt lat="41.2678757" lon="1.8077964">
        <ele>180.15</ele>
        <time>2021-01-03T10:04:05Z</time>
      </trkpt>
      <trkpt lat="41.2678712" lon="1.8075496">
        <ele>180.23</ele>
        <time>2021-01-03T10:04:17Z</time>
      </trkpt>
      <trkpt lat="41.2678858" lon="1.8072987">
        <ele>175.53</ele>
        <time>2021-01-03T10:04:31Z</time>
      </trkpt>
      <trkpt lat="41.2680517" lon="1.8071864">
        <ele>167.70</ele>
        <time>2021-01-03T10:04:50Z</time>
      </trkpt>
      <trkpt lat="41.2681438" lon="1.8069755">
        <ele>162.12</ele>
        <time>2021-01-03T10:05:04Z</time>
      </trkpt>
      <trkpt lat="41.2681999" lon="1.8067376">
        <ele>160.12</ele>
        <time>2021-01-03T10:05:19Z</time>
      </trkpt>
      <trkpt lat="41.2682385" lon="1.8065010">
        <ele>158.71</ele>
        <time>2021-01-03T10:05:39Z</time>
      </trkpt>
      <trkpt lat="41.2683541" lon="1.8063155">
        <ele>163.81</ele>
        <time>2021-01-03T10:06:01Z</time>
      </trkpt>
      <trkpt lat="41.2684376" lon="1.8060871">
        <ele>160.92</ele>
        <time>2021-01-03T10:06:17Z</time>
      </trkpt>
      <trkpt lat="41.2684823" lon="1.8058482">
        <ele>152.81</ele>
        <time>2021-01-03T10:06:34Z</time>
      </trkpt>
      <trkpt lat="41.2684660" lon="1.8056066">
        <ele>151.56</ele>
        <time>2021-01-03T10:06:52Z</time>
      </trkpt>
      <trkpt lat="41.2683281" lon="1.8054511">
        <ele>153.50</ele>
        <time>2021-01-03T10:07:37Z</time>
      </trkpt>
      <trkpt lat="41.2683482" lon="1.8052123">
        <ele>150.40</ele>
        <time>2021-01-03T10:08:27Z</time>
      </trkpt>
      <trkpt lat="41.2683232" lon="1.8049676">
        <ele>148.77</ele>
        <time>2021-01-03T10:08:39Z</time>
      </trkpt>
      <trkpt lat="41.2683070" lon="1.8047267">
        <ele>145.52</ele>
        <time>2021-01-03T10:08:54Z</time>
      </trkpt>
      <trkpt lat="41.2683026" lon="1.8044784">
        <ele>137.93</ele>
        <time>2021-01-03T10:09:10Z</time>
      </trkpt>
      <trkpt lat="41.2683794" lon="1.8042488">
        <ele>130.57</ele>
        <time>2021-01-03T10:09:27Z</time>
      </trkpt>
      <trkpt lat="41.2684253" lon="1.8040157">
        <ele>124.00</ele>
        <time>2021-01-03T10:09:43Z</time>
      </trkpt>
      <trkpt lat="41.2685711" lon="1.8038733">
        <ele>116.91</ele>
        <time>2021-01-03T10:09:59Z</time>
      </trkpt>
      <trkpt lat="41.2685266" lon="1.8036310">
        <ele>113.89</ele>
        <time>2021-01-03T10:10:13Z</time>
      </trkpt>
      <trkpt lat="41.2684811" lon="1.8033969">
        <ele>109.57</ele>
        <time>2021-01-03T10:10:36Z</time>
      </trkpt>
      <trkpt lat="41.2685340" lon="1.8031553">
        <ele>106.24</ele>
        <time>2021-01-03T10:10:50Z</time>
      </trkpt>
      <trkpt lat="41.2685740" lon="1.8029144">
        <ele>104.13</ele>
        <time>2021-01-03T10:11:06Z</time>
      </trkpt>
      <trkpt lat="41.2686392" lon="1.8026912">
        <ele>99.33</ele>
        <time>2021-01-03T10:11:28Z</time>
      </trkpt>
      <trkpt lat="41.2684572" lon="1.8027257">
        <ele>100.72</ele>
        <time>2021-01-03T10:13:00Z</time>
      </trkpt>
      <trkpt lat="41.2683039" lon="1.8028522">
        <ele>99.63</ele>
        <time>2021-01-03T10:13:14Z</time>
      </trkpt>
      <trkpt lat="41.2681705" lon="1.8030252">
        <ele>101.81</ele>
        <time>2021-01-03T10:13:33Z</time>
      </trkpt>
      <trkpt lat="41.2680549" lon="1.8032144">
        <ele>103.34</ele>
        <time>2021-01-03T10:13:48Z</time>
      </trkpt>
      <trkpt lat="41.2679253" lon="1.8033936">
        <ele>103.81</ele>
        <time>2021-01-03T10:14:06Z</time>
      </trkpt>
      <trkpt lat="41.2677935" lon="1.8035796">
        <ele>100.48</ele>
        <time>2021-01-03T10:14:19Z</time>
      </trkpt>
      <trkpt lat="41.2676507" lon="1.8037255">
        <ele>101.41</ele>
        <time>2021-01-03T10:14:37Z</time>
      </trkpt>
      <trkpt lat="41.2674729" lon="1.8037728">
        <ele>100.55</ele>
        <time>2021-01-03T10:14:54Z</time>
      </trkpt>
      <trkpt lat="41.2675395" lon="1.8035363">
        <ele>98.49</ele>
        <time>2021-01-03T10:15:13Z</time>
      </trkpt>
      <trkpt lat="41.2676282" lon="1.8033131">
        <ele>99.66</ele>
        <time>2021-01-03T10:15:26Z</time>
      </trkpt>
      <trkpt lat="41.2676928" lon="1.8030789">
        <ele>98.29</ele>
        <time>2021-01-03T10:15:43Z</time>
      </trkpt>
      <trkpt lat="41.2677275" lon="1.8028287">
        <ele>94.72</ele>
        <time>2021-01-03T10:15:57Z</time>
      </trkpt>
      <trkpt lat="41.2677713" lon="1.8025900">
        <ele>93.20</ele>
        <time>2021-01-03T10:16:11Z</time>
      </trkpt>
      <trkpt lat="41.2679113" lon="1.8024391">
        <ele>92.51</ele>
        <time>2021-01-03T10:16:35Z</time>
      </trkpt>
      <trkpt lat="41.2678831" lon="1.8021958">
        <ele>91.67</ele>
        <time>2021-01-03T10:16:55Z</time>
      </trkpt>
      <trkpt lat="41.2679199" lon="1.8019575">
        <ele>89.82</ele>
        <time>2021-01-03T10:17:06Z</time>
      </trkpt>
      <trkpt lat="41.2680213" lon="1.8017569">
        <ele>89.42</ele>
        <time>2021-01-03T10:17:17Z</time>
      </trkpt>
      <trkpt lat="41.2681728" lon="1.8016073">
        <ele>81.57</ele>
        <time>2021-01-03T10:17:27Z</time>
      </trkpt>
      <trkpt lat="41.2683276" lon="1.8014602">
        <ele>82.04</ele>
        <time>2021-01-03T10:17:42Z</time>
      </trkpt>
      <trkpt lat="41.2684724" lon="1.8013043">
        <ele>86.85</ele>
        <time>2021-01-03T10:18:02Z</time>
      </trkpt>
      <trkpt lat="41.2686503" lon="1.8012211">
        <ele>82.82</ele>
        <time>2021-01-03T10:18:18Z</time>
      </trkpt>
      <trkpt lat="41.2688367" lon="1.8011586">
        <ele>74.97</ele>
        <time>2021-01-03T10:18:33Z</time>
      </trkpt>
      <trkpt lat="41.2690172" lon="1.8011647">
        <ele>68.94</ele>
        <time>2021-01-03T10:18:42Z</time>
      </trkpt>
      <trkpt lat="41.2691973" lon="1.8011948">
        <ele>62.27</ele>
        <time>2021-01-03T10:18:51Z</time>
      </trkpt>
      <trkpt lat="41.2693690" lon="1.8012789">
        <ele>56.51</ele>
        <time>2021-01-03T10:19:04Z</time>
      </trkpt>
      <trkpt lat="41.2695211" lon="1.8014172">
        <ele>54.50</ele>
        <time>2021-01-03T10:19:17Z</time>
      </trkpt>
      <trkpt lat="41.2696678" lon="1.8015615">
        <ele>53.17</ele>
        <time>2021-01-03T10:19:30Z</time>
      </trkpt>
      <trkpt lat="41.2697688" lon="1.8017706">
        <ele>52.60</ele>
        <time>2021-01-03T10:19:44Z</time>
      </trkpt>
      <trkpt lat="41.2698871" lon="1.8019555">
        <ele>54.55</ele>
        <time>2021-01-03T10:19:59Z</time>
      </trkpt>
      <trkpt lat="41.2699680" lon="1.8017380">
        <ele>55.82</ele>
        <time>2021-01-03T10:20:13Z</time>
      </trkpt>
      <trkpt lat="41.2699934" lon="1.8014828">
        <ele>55.56</ele>
        <time>2021-01-03T10:20:30Z</time>
      </trkpt>
      <trkpt lat="41.2700515" lon="1.8012449">
        <ele>51.58</ele>
        <time>2021-01-03T10:20:45Z</time>
      </trkpt>
      <trkpt lat="41.2701008" lon="1.8010016">
        <ele>49.95</ele>
        <time>2021-01-03T10:20:57Z</time>
      </trkpt>
      <trkpt lat="41.2701112" lon="1.8007476">
        <ele>51.59</ele>
        <time>2021-01-03T10:21:09Z</time>
      </trkpt>
      <trkpt lat="41.2701198" lon="1.8004995">
        <ele>48.49</ele>
        <time>2021-01-03T10:21:22Z</time>
      </trkpt>
      <trkpt lat="41.2701304" lon="1.8002495">
        <ele>48.83</ele>
        <time>2021-01-03T10:21:36Z</time>
      </trkpt>
      <trkpt lat="41.2701294" lon="1.7999952">
        <ele>49.70</ele>
        <time>2021-01-03T10:21:50Z</time>
      </trkpt>
      <trkpt lat="41.2701342" lon="1.7997518">
        <ele>51.87</ele>
        <time>2021-01-03T10:22:03Z</time>
      </trkpt>
      <trkpt lat="41.2701482" lon="1.7995104">
        <ele>50.29</ele>
        <time>2021-01-03T10:22:16Z</time>
      </trkpt>
      <trkpt lat="41.2701030" lon="1.7992599">
        <ele>49.57</ele>
        <time>2021-01-03T10:22:30Z</time>
      </trkpt>
      <trkpt lat="41.2699760" lon="1.7990751">
        <ele>53.80</ele>
        <time>2021-01-03T10:22:43Z</time>
      </trkpt>
      <trkpt lat="41.2698026" lon="1.7989786">
        <ele>53.02</ele>
        <time>2021-01-03T10:22:57Z</time>
      </trkpt>
      <trkpt lat="41.2696458" lon="1.7988356">
        <ele>53.81</ele>
        <time>2021-01-03T10:23:13Z</time>
      </trkpt>
      <trkpt lat="41.2695155" lon="1.7986598">
        <ele>52.28</ele>
        <time>2021-01-03T10:23:24Z</time>
      </trkpt>
      <trkpt lat="41.2694281" lon="1.7984470">
        <ele>51.14</ele>
        <time>2021-01-03T10:23:37Z</time>
      </trkpt>
      <trkpt lat="41.2694016" lon="1.7981975">
        <ele>49.82</ele>
        <time>2021-01-03T10:23:51Z</time>
      </trkpt>
      <trkpt lat="41.2693671" lon="1.7979441">
        <ele>54.50</ele>
        <time>2021-01-03T10:24:05Z</time>
      </trkpt>
      <trkpt lat="41.2693079" lon="1.7977089">
        <ele>58.44</ele>
        <time>2021-01-03T10:24:18Z</time>
      </trkpt>
      <trkpt lat="41.2692485" lon="1.7974712">
        <ele>58.38</ele>
        <time>2021-01-03T10:24:31Z</time>
      </trkpt>
      <trkpt lat="41.2692276" lon="1.7972272">
        <ele>56.17</ele>
        <time>2021-01-03T10:24:45Z</time>
      </trkpt>
      <trkpt lat="41.2691749" lon="1.7969815">
        <ele>57.14</ele>
        <time>2021-01-03T10:24:59Z</time>
      </trkpt>
      <trkpt lat="41.2691071" lon="1.7967456">
        <ele>58.97</ele>
        <time>2021-01-03T10:25:13Z</time>
      </trkpt>
      <trkpt lat="41.2690324" lon="1.7965110">
        <ele>58.69</ele>
        <time>2021-01-03T10:25:27Z</time>
      </trkpt>
      <trkpt lat="41.2689891" lon="1.7962736">
        <ele>57.88</ele>
        <time>2021-01-03T10:25:44Z</time>
      </trkpt>
      <trkpt lat="41.2689635" lon="1.7960225">
        <ele>58.79</ele>
        <time>2021-01-03T10:25:55Z</time>
      </trkpt>
      <trkpt lat="41.2689425" lon="1.7957776">
        <ele>58.71</ele>
        <time>2021-01-03T10:26:08Z</time>
      </trkpt>
      <trkpt lat="41.2689715" lon="1.7955326">
        <ele>57.01</ele>
        <time>2021-01-03T10:26:21Z</time>
      </trkpt>
      <trkpt lat="41.2689842" lon="1.7952939">
        <ele>56.69</ele>
        <time>2021-01-03T10:26:35Z</time>
      </trkpt>
      <trkpt lat="41.2689308" lon="1.7950602">
        <ele>59.55</ele>
        <time>2021-01-03T10:26:50Z</time>
      </trkpt>
      <trkpt lat="41.2688539" lon="1.7948425">
        <ele>58.34</ele>
        <time>2021-01-03T10:27:02Z</time>
      </trkpt>
      <trkpt lat="41.2688182" lon="1.7946063">
        <ele>58.80</ele>
        <time>2021-01-03T10:27:16Z</time>
      </trkpt>
      <trkpt lat="41.2687503" lon="1.7943711">
        <ele>57.82</ele>
        <time>2021-01-03T10:27:30Z</time>
      </trkpt>
      <trkpt lat="41.2686996" lon="1.7941340">
        <ele>57.34</ele>
        <time>2021-01-03T10:27:43Z</time>
      </trkpt>
      <trkpt lat="41.2686468" lon="1.7939022">
        <ele>56.88</ele>
        <time>2021-01-03T10:27:55Z</time>
      </trkpt>
      <trkpt lat="41.2685928" lon="1.7936549">
        <ele>59.87</ele>
        <time>2021-01-03T10:28:10Z</time>
      </trkpt>
      <trkpt lat="41.2685593" lon="1.7934188">
        <ele>61.18</ele>
        <time>2021-01-03T10:28:23Z</time>
      </trkpt>
      <trkpt lat="41.2686921" lon="1.7932487">
        <ele>61.27</ele>
        <time>2021-01-03T10:28:37Z</time>
      </trkpt>
      <trkpt lat="41.2688700" lon="1.7931742">
        <ele>60.64</ele>
        <time>2021-01-03T10:28:51Z</time>
      </trkpt>
      <trkpt lat="41.2689723" lon="1.7929738">
        <ele>61.03</ele>
        <time>2021-01-03T10:29:07Z</time>
      </trkpt>
      <trkpt lat="41.2689949" lon="1.7927247">
        <ele>62.23</ele>
        <time>2021-01-03T10:29:23Z</time>
      </trkpt>
      <trkpt lat="41.2690111" lon="1.7924772">
        <ele>65.86</ele>
        <time>2021-01-03T10:29:39Z</time>
      </trkpt>
      <trkpt lat="41.2690087" lon="1.7922300">
        <ele>70.15</ele>
        <time>2021-01-03T10:29:56Z</time>
      </trkpt>
    </trkseg>
  </trk>
</gpx>
